Data for 10/23/2009

Time Sea-Level Adjusted Pressure Absolute Pressure Temperature Relative Humidity Dew Point Precipitation   
(mb) (inHg) (mb) (inHg) (C) (F) (%) (C) (F) (mm) (in)
00:01 1023 30.21 852 25.16 0.5 33 84 -1.8 28.7 0.797 0.031
00:02 1023 30.21 852 25.16 0.9 33.7 82 -1.8 28.7 1.187 0.047
00:03 1023 30.21 852 25.16 1.3 34.4 80 -1.8 28.7 1.55 0.061
00:04 1023 30.21 852 25.16 1.6 34.8 78 -1.9 28.6 1.794 0.071
00:05 1023 30.21 852 25.16 1.6 34.9 77 -2 28.4 1.913 0.075
00:06 1023 30.21 852 25.16 1.6 34.9 77 -2 28.4 1.958 0.077
00:07 1023 30.21 852 25.16 1.7 35 76 -2.1 28.2 1.987 0.078
00:08 1023 30.21 852 25.16 1.6 34.8 76 -2.2 28 1.896 0.075
00:09 1023 30.21 852 25.16 1.4 34.5 76 -2.4 27.8 1.71 0.067
00:10 1023 30.21 852 25.16 1.1 33.9 76 -2.6 27.3 1.461 0.058
00:11 1023 30.21 852 25.16 0.7 33.3 79 -2.6 27.4 1.167 0.046
00:12 1023 30.21 852 25.16 0.5 32.9 80 -2.6 27.3 0.952 0.037
00:13 1023 30.21 852 25.16 0.4 32.7 81 -2.6 27.4 0.805 0.032
00:14 1023 30.21 852 25.16 0.3 32.6 82 -2.4 27.6 0.731 0.029
00:15 1023 30.21 852 25.16 0.4 32.7 82 -2.4 27.7 0.765 0.03
00:16 1023 30.21 852 25.16 0.4 32.7 82 -2.4 27.7 0.748 0.029
00:17 1023 30.21 852 25.16 0.4 32.7 82 -2.4 27.7 0.777 0.031
00:18 1023 30.21 852 25.16 0.4 32.6 81 -2.5 27.6 0.743 0.029
00:19 1023 30.21 852 25.16 0.3 32.6 81 -2.5 27.4 0.703 0.028
00:20 1023 30.21 852 25.16 0.2 32.4 82 -2.5 27.4 0.63 0.025
00:21 1023 30.21 852 25.16 0.1 32.3 82 -2.6 27.4 0.545 0.021
00:22 1023 30.21 852 25.16 0.1 32.1 82 -2.6 27.3 0.466 0.018
00:23 1023 30.21 852 25.16 -0 32 82 -2.7 27.2 0.364 0.014
00:24 1023 30.21 852 25.16 -0.1 31.9 82 -2.8 27 0.341 0.013
00:25 1023 30.21 852 25.16 -0.2 31.6 83 -2.8 27 0.183 0.007
00:26 1023 30.21 852 25.16 -0.3 31.5 83 -2.8 26.9 0.07 0.003
00:27 1023 30.21 852 25.16 -0.4 31.3 84 -2.8 27 -0.004 -0
00:28 1023 30.21 852 25.16 -0.5 31.1 82 -3.2 26.2 -0.083 -0.003
00:29 1023 30.21 852 25.16 -0.9 30.5 81 -3.6 25.4 -0.474 -0.019
00:30 1023 30.21 852 25.16 -1.3 29.7 83 -3.8 25.2 -0.847 -0.033
00:31 1023 30.21 852 25.16 -1.5 29.3 87 -3.5 25.7 -1.091 -0.043
00:32 1023 30.21 852 25.16 -1.6 29.1 88 -3.3 26.1 -1.13 -0.044
00:33 1023 30.21 852 25.16 -1.6 29.1 89 -3.2 26.2 -1.135 -0.045
00:34 1023 30.21 852 25.16 -1.6 29.1 88 -3.3 26 -1.186 -0.047
00:35 1023 30.21 852 25.16 -1.7 29 88 -3.4 26 -1.248 -0.049
00:36 1023 30.21 852 25.16 -1.7 28.9 88 -3.4 25.8 -1.309 -0.052
00:37 1023 30.21 852 25.16 -1.8 28.7 89 -3.5 25.8 -1.377 -0.054
00:38 1023 30.21 852 25.16 -1.9 28.6 89 -3.4 25.9 -1.462 -0.058
00:39 1023 30.21 852 25.16 -2 28.5 89 -3.6 25.5 -1.506 -0.059
00:40 1023 30.21 852 25.16 -2.1 28.2 89 -3.8 25.2 -1.682 -0.066
00:41 1023 30.21 852 25.16 -2.2 28 89 -3.8 25.2 -1.835 -0.072
00:42 1023 30.21 852 25.16 -2.3 27.8 90 -3.8 25.2 -1.925 -0.076
00:43 1023 30.21 852 25.16 -2.4 27.6 90 -3.8 25.2 -1.97 -0.078
00:44 1023 30.21 852 25.16 -2.5 27.4 91 -3.8 25.1 -2.06 -0.081
00:45 1023 30.21 852 25.16 -2.5 27.5 91 -3.7 25.3 -2.06 -0.081
00:46 1023 30.21 852 25.16 -2.5 27.5 92 -3.7 25.4 -2.06 -0.081
00:47 1023 30.21 852 25.16 -2.5 27.5 92 -3.6 25.5 -2.054 -0.081
00:48 1023 30.21 852 25.16 -2.5 27.5 92 -3.6 25.4 -2.065 -0.081
00:49 1023 30.21 852 25.16 -2.5 27.5 92 -3.7 25.4 -2.076 -0.082
00:50 1023 30.21 852 25.16 -2.5 27.5 92 -3.7 25.3 -2.093 -0.082
00:51 1023 30.21 852 25.16 -2.5 27.5 92 -3.7 25.3 -2.097 -0.083
00:52 1023 30.21 852 25.16 -2.6 27.3 91 -3.8 25.1 -2.143 -0.084
00:53 1023 30.21 852 25.16 -2.6 27.3 91 -3.9 25 -2.199 -0.087
00:54 1023 30.21 852 25.16 -2.7 27.2 91 -3.9 25 -2.289 -0.09
00:55 1023 30.21 852 25.16 -2.7 27.1 92 -3.8 25.1 -2.294 -0.09
00:56 1023 30.21 852 25.16 -2.7 27.1 92 -3.9 25 -2.356 -0.093
00:57 1023 30.21 852 25.16 -2.8 27 92 -3.9 25.1 -2.367 -0.093
00:58 1022 30.18 852 25.16 -2.8 27 92 -3.9 25 -2.401 -0.095
00:59 1022 30.18 852 25.16 -2.8 27 93 -3.8 25.1 -2.383 -0.094
01:00 1023 30.21 852 25.16 -2.8 27 92 -3.9 25.1 -2.389 -0.094
01:01 1023 30.21 852 25.16 -2.8 26.9 93 -3.8 25.1 -2.428 -0.096
01:02 1022 30.18 852 25.16 -2.8 26.9 93 -3.8 25.2 -2.394 -0.094
01:03 1022 30.18 852 25.16 -2.8 26.9 93 -3.8 25.2 -2.388 -0.094
01:04 1022 30.18 852 25.16 -2.8 26.9 94 -3.7 25.3 -2.354 -0.093
01:05 1022 30.18 852 25.16 -2.8 27 94 -3.7 25.4 -2.325 -0.092
01:06 1022 30.18 852 25.16 -2.7 27.1 94 -3.6 25.5 -2.303 -0.091
01:07 1022 30.18 852 25.16 -2.7 27.1 93 -3.6 25.5 -2.28 -0.09
01:08 1022 30.18 852 25.16 -2.7 27.1 93 -3.6 25.4 -2.302 -0.091
01:09 1022 30.18 852 25.16 -2.7 27.1 93 -3.7 25.4 -2.33 -0.092
01:10 1022 30.18 852 25.16 -2.8 27 93 -3.7 25.3 -2.336 -0.092
01:11 1022 30.18 852 25.16 -2.7 27.1 94 -3.6 25.5 -2.341 -0.092
01:12 1022 30.18 852 25.16 -2.7 27.1 94 -3.6 25.4 -2.307 -0.091
01:13 1022 30.18 852 25.16 -2.7 27.1 94 -3.6 25.5 -2.245 -0.088
01:14 1022 30.18 852 25.16 -2.6 27.3 94 -3.5 25.7 -2.2 -0.087
01:15 1022 30.18 852 25.16 -2.5 27.4 94 -3.4 25.9 -2.126 -0.084
01:16 1022 30.18 852 25.16 -2.4 27.7 94 -3.3 26.1 -1.996 -0.079
01:17 1022 30.18 851 25.13 -2.3 27.8 93 -3.2 26.2 -1.916 -0.075
01:18 1022 30.18 851 25.13 -2.2 28 93 -3.2 26.2 -1.792 -0.071
01:19 1022 30.18 851 25.13 -2.1 28.2 93 -3.2 26.3 -1.718 -0.068
01:20 1022 30.18 851 25.13 -2.1 28.2 92 -3.2 26.2 -1.678 -0.066
01:21 1022 30.18 851 25.13 -2.1 28.3 92 -3.2 26.2 -1.701 -0.067
01:22 1022 30.18 851 25.13 -2.1 28.2 92 -3.3 26 -1.712 -0.067
01:23 1022 30.18 851 25.13 -2.1 28.2 91 -3.3 26 -1.718 -0.068
01:24 1022 30.18 851 25.13 -2.1 28.1 91 -3.4 26 -1.752 -0.069
01:25 1022 30.18 851 25.13 -2.1 28.1 91 -3.4 25.9 -1.752 -0.069
01:26 1022 30.18 851 25.13 -2.2 28.1 91 -3.5 25.7 -1.791 -0.071
01:27 1022 30.18 851 25.13 -2.3 27.9 91 -3.6 25.6 -1.853 -0.073
01:28 1022 30.18 851 25.13 -2.3 27.8 91 -3.5 25.6 -1.904 -0.075
01:29 1022 30.18 851 25.13 -2.4 27.8 91 -3.6 25.6 -1.916 -0.075
01:30 1022 30.18 851 25.13 -2.4 27.8 91 -3.6 25.6 -1.938 -0.076
01:31 1022 30.18 851 25.13 -2.4 27.7 92 -3.5 25.6 -1.944 -0.077
01:32 1022 30.18 851 25.13 -2.3 27.8 92 -3.5 25.6 -1.961 -0.077
01:33 1022 30.18 851 25.13 -2.4 27.7 91 -3.6 25.5 -1.944 -0.077
01:34 1022 30.18 851 25.13 -2.4 27.7 92 -3.6 25.6 -1.967 -0.077
01:35 1022 30.18 851 25.13 -2.4 27.7 91 -3.7 25.4 -1.989 -0.078
01:36 1022 30.18 851 25.13 -2.5 27.6 91 -3.8 25.2 -2.085 -0.082
01:37 1022 30.18 851 25.13 -2.6 27.3 91 -3.8 25.1 -2.181 -0.086
01:38 1022 30.18 851 25.13 -2.6 27.3 91 -3.9 25 -2.226 -0.088
01:39 1022 30.18 851 25.13 -2.7 27.1 92 -3.9 25 -2.26 -0.089
01:40 1022 30.18 851 25.13 -2.7 27.1 92 -3.9 25.1 -2.304 -0.091
01:41 1022 30.18 851 25.13 -2.7 27.1 92 -3.8 25.2 -2.298 -0.09
01:42 1022 30.18 851 25.13 -2.7 27.2 92 -3.7 25.3 -2.264 -0.089
01:43 1022 30.18 851 25.13 -2.7 27.2 92 -3.7 25.3 -2.236 -0.088
01:44 1022 30.18 851 25.13 -2.6 27.3 92 -3.7 25.4 -2.207 -0.087
01:45 1022 30.18 851 25.13 -2.6 27.3 93 -3.6 25.4 -2.201 -0.087
01:46 1022 30.18 851 25.13 -2.6 27.4 92 -3.6 25.5 -2.133 -0.084
01:47 1022 30.18 851 25.13 -2.5 27.4 92 -3.6 25.4 -2.132 -0.084
01:48 1022 30.18 851 25.13 -2.5 27.4 92 -3.6 25.5 -2.138 -0.084
01:49 1022 30.18 851 25.13 -2.5 27.5 92 -3.6 25.5 -2.104 -0.083
01:50 1022 30.18 851 25.13 -2.5 27.4 91 -3.8 25.1 -2.2 -0.087
01:51 1022 30.18 851 25.13 -2.6 27.3 91 -3.9 25 -2.29 -0.09
01:52 1022 30.18 851 25.13 -2.7 27.2 92 -3.7 25.3 -2.296 -0.09
01:53 1022 30.18 851 25.13 -2.6 27.3 93 -3.6 25.5 -2.16 -0.085
01:54 1022 30.18 851 25.13 -2.5 27.4 93 -3.5 25.8 -2.041 -0.08
01:55 1022 30.18 851 25.13 -2.4 27.6 94 -3.3 26 -1.899 -0.075
01:56 1022 30.18 851 25.13 -2.3 27.9 93 -3.2 26.3 -1.746 -0.069
01:57 1022 30.18 851 25.13 -2.1 28.3 93 -3 26.5 -1.678 -0.066
01:58 1022 30.18 851 25.13 -1.9 28.6 93 -2.9 26.7 -1.553 -0.061
01:59 1022 30.18 851 25.13 -1.9 28.6 91 -3.1 26.5 -1.502 -0.059
02:00 1022 30.18 852 25.16 -1.8 28.7 92 -3 26.6 -1.457 -0.057
02:01 1022 30.18 851 25.13 -1.7 28.9 92 -2.9 26.8 -1.343 -0.053
02:02 1022 30.18 852 25.16 -1.7 29 91 -3 26.6 -1.315 -0.052
02:03 1022 30.18 851 25.13 -1.7 29 90 -3.1 26.4 -1.366 -0.054
02:04 1022 30.18 852 25.16 -1.7 28.9 90 -3.2 26.2 -1.444 -0.057
02:05 1022 30.18 852 25.16 -1.8 28.8 90 -3.2 26.2 -1.444 -0.057
02:06 1022 30.18 852 25.16 -1.8 28.8 90 -3.2 26.2 -1.455 -0.057
02:07 1022 30.18 852 25.16 -1.8 28.7 89 -3.4 25.9 -1.522 -0.06
02:08 1022 30.18 852 25.16 -1.9 28.5 89 -3.5 25.6 -1.613 -0.064
02:09 1022 30.18 852 25.16 -2 28.4 91 -3.3 26.1 -1.635 -0.064
02:10 1022 30.18 852 25.16 -1.9 28.6 90 -3.3 26.1 -1.572 -0.062
02:11 1022 30.18 852 25.16 -1.9 28.5 89 -3.5 25.8 -1.555 -0.061
02:12 1022 30.18 852 25.16 -2 28.5 89 -3.6 25.5 -1.606 -0.063
02:13 1022 30.18 852 25.16 -2 28.4 89 -3.5 25.6 -1.667 -0.066
02:14 1022 30.18 851 25.13 -2.1 28.2 89 -3.7 25.3 -1.775 -0.07
02:15 1022 30.18 851 25.13 -2.2 28 90 -3.7 25.4 -1.866 -0.073
02:16 1022 30.18 851 25.13 -2.3 27.9 91 -3.6 25.6 -1.916 -0.075
02:17 1022 30.18 852 25.16 -2.1 28.1 92 -3.3 26 -1.763 -0.069
02:18 1022 30.18 852 25.16 -2.1 28.3 90 -3.5 25.7 -1.718 -0.068
02:19 1022 30.18 852 25.16 -2.1 28.2 89 -3.7 25.3 -1.78 -0.07
02:20 1022 30.18 852 25.16 -2.3 27.9 89 -3.9 25 -1.91 -0.075
02:21 1022 30.18 852 25.16 -2.4 27.7 89 -3.9 24.9 -2.006 -0.079
02:22 1022 30.18 852 25.16 -2.5 27.5 89 -4.1 24.5 -2.176 -0.086
02:23 1022 30.18 852 25.16 -2.7 27.2 91 -4 24.9 -2.34 -0.092
02:24 1022 30.18 852 25.16 -2.7 27.2 91 -4 24.8 -2.357 -0.093
02:25 1022 30.18 852 25.16 -2.8 27 90 -4.2 24.5 -2.447 -0.096
02:26 1022 30.18 852 25.16 -2.9 26.9 90 -4.3 24.3 -2.532 -0.1
02:27 1022 30.18 852 25.16 -3 26.7 91 -4.2 24.4 -2.595 -0.102
02:28 1022 30.18 852 25.16 -3 26.6 92 -4.1 24.6 -2.623 -0.103
02:29 1022 30.18 852 25.16 -3 26.6 91 -4.3 24.3 -2.651 -0.104
02:30 1022 30.18 852 25.16 -3.1 26.4 91 -4.3 24.2 -2.719 -0.107
02:31 1022 30.18 852 25.16 -3.1 26.4 92 -4.2 24.4 -2.759 -0.109
02:32 1022 30.18 852 25.16 -3.1 26.4 92 -4.3 24.3 -2.708 -0.107
02:33 1022 30.18 852 25.16 -3.1 26.4 93 -4.1 24.6 -2.73 -0.107
02:34 1022 30.18 852 25.16 -3 26.7 93 -3.9 24.9 -2.645 -0.104
02:35 1022 30.18 852 25.16 -2.9 26.8 93 -3.9 25 -2.515 -0.099
02:36 1022 30.18 852 25.16 -2.9 26.8 91 -4.2 24.5 -2.594 -0.102
02:37 1022 30.18 852 25.16 -2.9 26.7 91 -4.1 24.6 -2.617 -0.103
02:38 1022 30.18 852 25.16 -2.8 26.9 92 -4 24.9 -2.532 -0.1
02:39 1022 30.18 852 25.16 -2.8 26.9 92 -4 24.8 -2.475 -0.097
02:40 1022 30.18 852 25.16 -2.9 26.9 91 -4.1 24.7 -2.526 -0.099
02:41 1022 30.18 852 25.16 -2.9 26.8 91 -4.1 24.6 -2.537 -0.1
02:42 1022 30.18 852 25.16 -3 26.7 91 -4.3 24.3 -2.622 -0.103
02:43 1022 30.18 852 25.16 -3.1 26.4 91 -4.4 24 -2.741 -0.108
02:44 1022 30.18 852 25.16 -3.2 26.3 92 -4.3 24.3 -2.826 -0.111
02:45 1022 30.18 852 25.16 -3.1 26.4 93 -4.1 24.7 -2.679 -0.105
02:46 1022 30.18 852 25.16 -3 26.6 92 -4.2 24.5 -2.616 -0.103
02:47 1022 30.18 852 25.16 -3.1 26.5 91 -4.4 24.1 -2.713 -0.107
02:48 1022 30.18 852 25.16 -3.2 26.3 91 -4.4 24.1 -2.815 -0.111
02:49 1022 30.18 852 25.16 -3.2 26.3 92 -4.2 24.4 -2.792 -0.11
02:50 1022 30.18 852 25.16 -3.1 26.4 93 -4.1 24.6 -2.764 -0.109
02:51 1022 30.18 852 25.16 -3 26.6 92 -4.1 24.6 -2.628 -0.103
02:52 1022 30.18 852 25.16 -3 26.6 92 -4.2 24.5 -2.599 -0.102
02:53 1022 30.18 852 25.16 -3 26.6 91 -4.2 24.4 -2.605 -0.103
02:54 1022 30.18 851 25.13 -3 26.7 92 -4.1 24.6 -2.599 -0.102
02:55 1022 30.18 851 25.13 -2.9 26.7 92 -4 24.8 -2.548 -0.1
02:56 1022 30.18 851 25.13 -2.8 26.9 91 -4 24.7 -2.446 -0.096
02:57 1022 30.18 851 25.13 -2.8 26.9 92 -4 24.8 -2.424 -0.095
02:58 1022 30.18 851 25.13 -2.8 27 91 -4 24.8 -2.39 -0.094
02:59 1022 30.18 852 25.16 -2.8 27 91 -4.1 24.7 -2.373 -0.093
03:00 1022 30.18 852 25.16 -2.8 27 91 -4 24.9 -2.378 -0.094
03:01 1022 30.18 852 25.16 -2.7 27.1 92 -3.9 25 -2.327 -0.092
03:02 1022 30.18 852 25.16 -2.8 27 91 -4.1 24.6 -2.39 -0.094
03:03 1022 30.18 852 25.16 -2.9 26.9 90 -4.2 24.4 -2.441 -0.096
03:04 1022 30.18 852 25.16 -2.9 26.7 91 -4.2 24.5 -2.514 -0.099
03:05 1022 30.18 852 25.16 -3 26.6 91 -4.2 24.4 -2.537 -0.1
03:06 1022 30.18 852 25.16 -2.9 26.7 91 -4.2 24.5 -2.56 -0.101
03:07 1022 30.18 852 25.16 -3 26.6 91 -4.3 24.2 -2.582 -0.102
03:08 1022 30.18 852 25.16 -3.1 26.4 90 -4.5 23.9 -2.701 -0.106
03:09 1022 30.18 852 25.16 -3.3 26.1 90 -4.7 23.5 -2.86 -0.113
03:10 1022 30.18 852 25.16 -3.4 25.9 90 -4.7 23.5 -2.967 -0.117
03:11 1022 30.18 851 25.13 -3.4 25.9 93 -4.4 24.1 -2.956 -0.116
03:12 1022 30.18 851 25.13 -3.4 25.9 92 -4.6 23.8 -2.962 -0.117
03:13 1022 30.18 851 25.13 -3.4 25.9 92 -4.6 23.8 -3.024 -0.119
03:14 1022 30.18 851 25.13 -3.4 25.8 92 -4.6 23.8 -3.024 -0.119
03:15 1022 30.18 851 25.13 -3.4 25.8 92 -4.5 23.8 -3.035 -0.119
03:16 1022 30.18 851 25.13 -3.4 25.9 93 -4.4 24.1 -2.996 -0.118
03:17 1022 30.18 851 25.13 -3.4 26 93 -4.3 24.2 -2.945 -0.116
03:18 1022 30.18 851 25.13 -3.3 26.1 94 -4.1 24.7 -2.786 -0.11
03:19 1022 30.18 851 25.13 -3 26.5 93 -4 24.9 -2.61 -0.103
03:20 1022 30.18 851 25.13 -3 26.6 93 -4 24.8 -2.588 -0.102
03:21 1022 30.18 851 25.13 -2.9 26.8 92 -4 24.7 -2.554 -0.101
03:22 1022 30.18 851 25.13 -2.9 26.7 91 -4.1 24.5 -2.616 -0.103
03:23 1022 30.18 851 25.13 -3 26.7 91 -4.2 24.4 -2.622 -0.103
03:24 1022 30.18 851 25.13 -2.9 26.7 92 -4.1 24.6 -2.616 -0.103
03:25 1022 30.18 851 25.13 -2.9 26.7 91 -4.2 24.5 -2.593 -0.102
03:26 1022 30.18 851 25.13 -3 26.7 91 -4.2 24.5 -2.622 -0.103
03:27 1022 30.18 851 25.13 -3 26.6 91 -4.3 24.3 -2.616 -0.103
03:28 1022 30.18 851 25.13 -3 26.6 92 -4.2 24.5 -2.639 -0.104
03:29 1022 30.18 851 25.13 -3 26.6 91 -4.2 24.4 -2.65 -0.104
03:30 1022 30.18 851 25.13 -3 26.6 91 -4.2 24.4 -2.678 -0.105
03:31 1022 30.18 851 25.13 -3 26.6 91 -4.2 24.4 -2.701 -0.106
03:32 1022 30.18 851 25.13 -3.1 26.5 91 -4.3 24.3 -2.745 -0.108
03:33 1022 30.18 851 25.13 -3.1 26.4 92 -4.2 24.4 -2.723 -0.107
03:34 1022 30.18 851 25.13 -3 26.5 92 -4.2 24.5 -2.666 -0.105
03:35 1022 30.18 851 25.13 -3 26.6 92 -4.2 24.5 -2.62 -0.103
03:36 1022 30.18 851 25.13 -2.9 26.7 92 -4.1 24.7 -2.591 -0.102
03:37 1022 30.18 851 25.13 -2.9 26.8 92 -4 24.8 -2.54 -0.1
03:38 1022 30.18 851 25.13 -2.9 26.8 92 -4 24.8 -2.546 -0.1
03:39 1022 30.18 851 25.13 -2.8 26.9 92 -4 24.8 -2.49 -0.098
03:40 1022 30.18 851 25.13 -2.8 26.9 91 -4 24.8 -2.478 -0.098
03:41 1022 30.18 851 25.13 -2.8 26.9 91 -4 24.7 -2.489 -0.098
03:42 1022 30.18 851 25.13 -2.8 27 92 -3.9 24.9 -2.438 -0.096
03:43 1022 30.18 851 25.13 -2.7 27.1 91 -4 24.8 -2.432 -0.096
03:44 1022 30.18 851 25.13 -2.8 27 91 -4 24.8 -2.471 -0.097
03:45 1022 30.18 851 25.13 -2.7 27.1 92 -3.9 25.1 -2.431 -0.096
03:46 1022 30.18 851 25.13 -2.7 27.2 92 -3.8 25.1 -2.375 -0.094
03:47 1022 30.18 851 25.13 -2.7 27.2 91 -3.9 25 -2.363 -0.093
03:48 1022 30.18 851 25.13 -2.7 27.2 91 -3.9 24.9 -2.368 -0.093
03:49 1022 30.18 851 25.13 -2.7 27.2 92 -3.7 25.3 -2.295 -0.09
03:50 1022 30.18 851 25.13 -2.6 27.4 92 -3.7 25.4 -2.226 -0.088
03:51 1022 30.18 851 25.13 -2.5 27.5 92 -3.6 25.4 -2.17 -0.085
03:52 1022 30.18 851 25.13 -2.4 27.6 91 -3.7 25.3 -2.119 -0.083
03:53 1022 30.18 851 25.13 -2.4 27.6 90 -3.8 25.1 -2.152 -0.085
03:54 1022 30.18 851 25.13 -2.5 27.5 91 -3.9 25.1 -2.237 -0.088
03:55 1022 30.18 851 25.13 -2.6 27.3 91 -3.9 25 -2.26 -0.089
03:56 1022 30.18 851 25.13 -2.6 27.3 92 -3.8 25.2 -2.254 -0.089
03:57 1022 30.18 851 25.13 -2.5 27.4 92 -3.7 25.4 -2.22 -0.087
03:58 1022 30.18 851 25.13 -2.5 27.4 92 -3.7 25.4 -2.163 -0.085
03:59 1022 30.18 851 25.13 -2.4 27.6 92 -3.6 25.5 -2.118 -0.083
04:00 1022 30.18 851 25.13 -2.4 27.7 92 -3.6 25.6 -2.089 -0.082
04:01 1022 30.18 851 25.13 -2.4 27.7 91 -3.6 25.5 -2.078 -0.082
04:02 1022 30.18 851 25.13 -2.4 27.8 91 -3.6 25.5 -2.05 -0.081
04:03 1022 30.18 851 25.13 -2.3 27.9 92 -3.3 26 -1.948 -0.077
04:04 1022 30.18 851 25.13 -2.1 28.2 91 -3.4 25.9 -1.789 -0.07
04:05 1022 30.18 851 25.13 -2.1 28.3 90 -3.5 25.7 -1.812 -0.071
04:06 1022 30.18 851 25.13 -2.1 28.3 90 -3.5 25.8 -1.744 -0.069
04:07 1022 30.18 851 25.13 -2 28.4 90 -3.4 25.8 -1.732 -0.068
04:08 1022 30.18 851 25.13 -2 28.4 89 -3.6 25.5 -1.715 -0.068
04:09 1022 30.18 851 25.13 -2 28.3 89 -3.6 25.5 -1.749 -0.069
04:10 1022 30.18 851 25.13 -2.1 28.3 89 -3.6 25.5 -1.755 -0.069
04:11 1022 30.18 851 25.13 -2.1 28.2 89 -3.6 25.5 -1.8 -0.071
04:12 1022 30.18 851 25.13 -2.1 28.3 90 -3.6 25.6 -1.743 -0.069
04:13 1022 30.18 851 25.13 -2.1 28.2 89 -3.7 25.4 -1.789 -0.07
04:14 1022 30.18 851 25.13 -2.2 28.1 89 -3.8 25.2 -1.817 -0.072
04:15 1022 30.18 851 25.13 -2.3 27.9 88 -4 24.8 -1.93 -0.076
04:16 1022 30.18 851 25.13 -2.4 27.7 88 -4.2 24.5 -2.043 -0.08
04:17 1022 30.18 851 25.13 -2.5 27.4 88 -4.2 24.4 -2.157 -0.085
04:18 1022 30.18 851 25.13 -2.7 27.2 89 -4.3 24.3 -2.27 -0.089
04:19 1022 30.18 851 25.13 -2.8 27 89 -4.3 24.2 -2.395 -0.094
04:20 1022 30.18 851 25.13 -2.8 26.9 89 -4.3 24.2 -2.434 -0.096
04:21 1022 30.18 851 25.13 -3 26.7 90 -4.4 24 -2.548 -0.1
04:22 1022 30.18 851 25.13 -3 26.6 90 -4.3 24.2 -2.582 -0.102
04:23 1021 30.15 851 25.13 -3 26.5 91 -4.3 24.2 -2.604 -0.103
04:24 1022 30.18 851 25.13 -3.1 26.4 90 -4.6 23.8 -2.661 -0.105
04:25 1021 30.15 851 25.13 -3.2 26.3 92 -4.3 24.3 -2.752 -0.108
04:26 1021 30.15 851 25.13 -3.1 26.4 91 -4.4 24 -2.723 -0.107
04:27 1021 30.15 851 25.13 -3.3 26.1 91 -4.6 23.7 -2.825 -0.111
04:28 1021 30.15 851 25.13 -3.3 26 91 -4.5 23.8 -2.944 -0.116
04:29 1021 30.15 851 25.13 -3.4 25.9 93 -4.4 24.1 -2.956 -0.116
04:30 1021 30.15 851 25.13 -3.3 26.1 93 -4.3 24.3 -2.893 -0.114
04:31 1021 30.15 850 25.1 -3.3 26.1 93 -4.3 24.2 -2.842 -0.112
04:32 1021 30.15 850 25.1 -3.3 26 92 -4.4 24.1 -2.893 -0.114
04:33 1021 30.15 850 25.1 -3.4 26 92 -4.5 23.9 -2.927 -0.115
04:34 1021 30.15 850 25.1 -3.4 25.8 92 -4.6 23.8 -2.984 -0.117
04:35 1021 30.15 850 25.1 -3.4 25.8 93 -4.5 24 -2.995 -0.118
04:36 1021 30.15 850 25.1 -3.4 25.9 93 -4.4 24.1 -2.967 -0.117
04:37 1021 30.15 850 25.1 -3.3 26 93 -4.3 24.2 -2.876 -0.113
04:38 1021 30.15 850 25.1 -3.3 26.1 92 -4.5 24 -2.916 -0.115
04:39 1021 30.15 850 25.1 -3.4 25.9 91 -4.7 23.6 -3.052 -0.12
04:40 1021 30.15 850 25.1 -3.5 25.8 93 -4.5 24 -3.086 -0.121
04:41 1021 30.15 850 25.1 -3.3 26 94 -4.1 24.6 -2.938 -0.116
04:42 1021 30.15 850 25.1 -3 26.5 94 -3.8 25.1 -2.678 -0.105
04:43 1021 30.15 850 25.1 -2.9 26.8 93 -3.8 25.2 -2.57 -0.101
04:44 1021 30.15 850 25.1 -2.9 26.8 92 -3.9 24.9 -2.553 -0.101
04:45 1021 30.15 850 25.1 -2.8 27 93 -3.7 25.3 -2.434 -0.096
04:46 1021 30.15 850 25.1 -2.5 27.5 94 -3.4 25.9 -2.213 -0.087
04:47 1021 30.15 850 25.1 -2.2 28 93 -3.2 26.3 -1.907 -0.075
04:48 1021 30.15 850 25.1 -2 28.4 91 -3.3 26 -1.709 -0.067
04:49 1021 30.15 850 25.1 -2.1 28.2 86 -4.1 24.6 -1.811 -0.071
04:50 1021 30.15 850 25.1 -2.3 27.8 88 -4.1 24.7 -2.066 -0.081
04:51 1021 30.15 850 25.1 -2.5 27.5 88 -4.2 24.5 -2.094 -0.082
04:52 1021 30.15 850 25.1 -2.6 27.3 90 -4 24.8 -2.208 -0.087
04:53 1021 30.15 850 25.1 -2.5 27.5 89 -4.1 24.6 -2.134 -0.084
04:54 1021 30.15 850 25.1 -2.7 27.2 89 -4.2 24.4 -2.327 -0.092
04:55 1021 30.15 850 25.1 -2.7 27.2 90 -4 24.8 -2.321 -0.091
04:56 1021 30.15 850 25.1 -2.7 27.2 88 -4.3 24.2 -2.332 -0.092
04:57 1021 30.15 850 25.1 -2.9 26.8 89 -4.4 24.1 -2.535 -0.1
04:58 1021 30.15 850 25.1 -2.8 26.9 92 -4 24.8 -2.478 -0.098
04:59 1021 30.15 850 25.1 -2.7 27.1 92 -3.8 25.1 -2.337 -0.092
05:00 1021 30.15 850 25.1 -2.6 27.3 91 -3.8 25.1 -2.303 -0.091
05:01 1021 30.15 850 25.1 -2.6 27.2 89 -4.3 24.3 -2.325 -0.092
05:02 1021 30.15 850 25.1 -2.8 27 90 -4.2 24.5 -2.49 -0.098
05:03 1021 30.15 850 25.1 -2.7 27.1 92 -3.9 24.9 -2.432 -0.096
05:04 1021 30.15 850 25.1 -2.6 27.3 91 -3.8 25.1 -2.33 -0.092
05:05 1021 30.15 850 25.1 -2.5 27.4 92 -3.7 25.3 -2.251 -0.089
05:06 1021 30.15 850 25.1 -2.4 27.7 91 -3.7 25.4 -2.182 -0.086
05:07 1021 30.15 850 25.1 -2.4 27.8 91 -3.7 25.4 -2.103 -0.083
05:08 1021 30.15 850 25.1 -2.4 27.7 90 -3.8 25.2 -2.091 -0.082
05:09 1021 30.15 850 25.1 -2.4 27.7 89 -3.9 24.9 -2.12 -0.083
05:10 1021 30.15 850 25.1 -2.5 27.5 89 -4 24.8 -2.177 -0.086
05:11 1021 30.15 850 25.1 -2.6 27.4 91 -3.9 25 -2.239 -0.088
05:12 1021 30.15 850 25.1 -2.5 27.5 92 -3.7 25.3 -2.176 -0.086
05:13 1021 30.15 850 25.1 -2.4 27.7 92 -3.5 25.6 -2.046 -0.081
05:14 1021 30.15 850 25.1 -2.3 27.9 92 -3.5 25.7 -1.955 -0.077
05:15 1021 30.15 850 25.1 -2.2 28 91 -3.4 25.8 -1.876 -0.074
05:16 1021 30.15 850 25.1 -2.1 28.2 91 -3.4 25.9 -1.769 -0.07
05:17 1021 30.15 850 25.1 -2.1 28.2 90 -3.5 25.7 -1.775 -0.07
05:18 1021 30.15 850 25.1 -2.1 28.2 90 -3.5 25.6 -1.78 -0.07
05:19 1021 30.15 850 25.1 -2.1 28.2 90 -3.5 25.7 -1.792 -0.071
05:20 1021 30.15 850 25.1 -2.1 28.3 90 -3.4 25.8 -1.757 -0.069
05:21 1021 30.15 850 25.1 -2.1 28.3 90 -3.5 25.6 -1.723 -0.068
05:22 1021 30.15 850 25.1 -2.1 28.3 89 -3.6 25.5 -1.797 -0.071
05:23 1021 30.15 850 25.1 -2.2 28.1 88 -4 24.8 -1.955 -0.077
05:24 1021 30.15 850 25.1 -2.5 27.6 87 -4.3 24.2 -2.221 -0.087
05:25 1021 30.15 850 25.1 -2.8 27 86 -4.8 23.4 -2.561 -0.101
05:26 1021 30.15 850 25.1 -3 26.6 88 -4.7 23.6 -2.787 -0.11
05:27 1021 30.15 850 25.1 -3.1 26.4 89 -4.7 23.6 -2.889 -0.114
05:28 1021 30.15 850 25.1 -3.2 26.3 91 -4.4 24 -2.912 -0.115
05:29 1021 30.15 850 25.1 -3.1 26.3 92 -4.3 24.3 -2.94 -0.116
05:30 1021 30.15 850 25.1 -3.1 26.4 90 -4.6 23.8 -2.86 -0.113
05:31 1021 30.15 850 25.1 -3.4 25.9 88 -5.1 22.9 -3.081 -0.121
05:32 1021 30.15 850 25.1 -3.5 25.7 93 -4.5 23.9 -3.149 -0.124
05:33 1021 30.15 850 25.1 -3.3 26 94 -4.2 24.4 -3.047 -0.12
05:34 1021 30.15 850 25.1 -3.1 26.4 94 -4 24.9 -2.871 -0.113
05:35 1021 30.15 850 25.1 -3 26.5 93 -4.1 24.6 -2.848 -0.112
05:36 1021 30.15 850 25.1 -3 26.6 91 -4.3 24.2 -2.78 -0.109
05:37 1021 30.15 850 25.1 -3 26.6 92 -4.2 24.5 -2.928 -0.115
05:38 1021 30.15 850 25.1 -2.9 26.7 93 -3.9 25 -2.82 -0.111
05:39 1021 30.15 850 25.1 -2.8 27 94 -3.6 25.6 -2.627 -0.103
05:40 1021 30.15 850 25.1 -2.7 27.1 87 -4.6 23.7 -2.582 -0.102
05:41 1021 30.15 850 25.1 -2.9 26.8 92 -3.9 24.9 -2.718 -0.107
05:42 1021 30.15 850 25.1 -2.6 27.3 94 -3.5 25.7 -2.383 -0.094
05:43 1021 30.15 850 25.1 -2.4 27.7 94 -3.3 26.1 -2.066 -0.081
05:44 1021 30.15 850 25.1 -2.2 28.1 91 -3.4 25.9 -1.867 -0.074
05:45 1021 30.15 850 25.1 -2 28.3 91 -3.3 26 -1.782 -0.07
05:46 1021 30.15 850 25.1 -1.9 28.5 90 -3.3 26 -1.709 -0.067
05:47 1021 30.15 850 25.1 -1.9 28.6 89 -3.4 25.9 -1.663 -0.065
05:48 1021 30.15 850 25.1 -2 28.3 86 -4.1 24.7 -1.771 -0.07
05:49 1021 30.15 850 25.1 -2.3 27.9 87 -4.1 24.6 -1.941 -0.076
05:50 1021 30.15 851 25.13 -2.3 27.8 89 -3.9 25.1 -2.031 -0.08
05:51 1021 30.15 851 25.13 -2.3 27.8 90 -3.7 25.4 -2.048 -0.081
05:52 1021 30.15 851 25.13 -2.4 27.8 89 -3.9 25 -2.048 -0.081
05:53 1021 30.15 851 25.13 -2.4 27.6 89 -3.9 24.9 -2.116 -0.083
05:54 1021 30.15 851 25.13 -2.4 27.6 91 -3.8 25.2 -2.19 -0.086
05:55 1021 30.15 851 25.13 -2.4 27.6 90 -3.9 25 -2.196 -0.086
05:56 1021 30.15 851 25.13 -2.4 27.6 91 -3.7 25.4 -2.179 -0.086
05:57 1021 30.15 851 25.13 -2.3 27.9 90 -3.7 25.4 -1.997 -0.079
05:58 1021 30.15 851 25.13 -2.1 28.3 90 -3.5 25.7 -1.788 -0.07
05:59 1021 30.15 851 25.13 -2 28.5 86 -4 24.8 -1.759 -0.069
06:00 1021 30.15 851 25.13 -2.1 28.3 90 -3.5 25.8 -1.89 -0.074
06:01 1021 30.15 851 25.13 -1.9 28.5 88 -3.7 25.3 -1.708 -0.067
06:02 1021 30.15 851 25.13 -2.1 28.3 84 -4.4 24.1 -1.873 -0.074
06:03 1021 30.15 851 25.13 -2.4 27.7 86 -4.4 24 -2.179 -0.086
06:04 1021 30.15 851 25.13 -2.6 27.3 86 -4.6 23.7 -2.388 -0.094
06:05 1021 30.15 851 25.13 -3 26.7 86 -5.1 22.9 -2.677 -0.105
06:06 1021 30.15 851 25.13 -3.3 26.1 88 -5 23.1 -2.904 -0.114
06:07 1021 30.15 851 25.13 -3.4 25.8 87 -5.2 22.6 -3.068 -0.121
06:08 1021 30.15 851 25.13 -3.7 25.4 89 -5.3 22.5 -3.272 -0.129
06:09 1021 30.15 851 25.13 -3.8 25.2 91 -5.1 22.8 -3.34 -0.131
06:10 1021 30.15 851 25.13 -3.8 25.2 91 -5 23 -3.34 -0.131
06:11 1021 30.15 851 25.13 -3.7 25.4 93 -4.6 23.6 -3.289 -0.129
06:12 1021 30.15 851 25.13 -3.5 25.8 93 -4.4 24 -3.091 -0.122
06:13 1021 30.15 851 25.13 -3.3 26 93 -4.4 24.1 -2.961 -0.117
06:14 1021 30.15 851 25.13 -3.2 26.3 92 -4.3 24.3 -2.836 -0.112
06:15 1021 30.15 850 25.1 -3.1 26.5 91 -4.3 24.3 -2.745 -0.108
06:16 1021 30.15 851 25.13 -3 26.7 92 -4.1 24.6 -2.643 -0.104
06:17 1021 30.15 851 25.13 -2.9 26.8 91 -4.2 24.5 -2.586 -0.102
06:18 1021 30.15 851 25.13 -2.8 26.9 90 -4.2 24.4 -2.535 -0.1
06:19 1021 30.15 850 25.1 -2.8 27 91 -4.1 24.7 -2.462 -0.097
06:20 1021 30.15 850 25.1 -2.7 27.2 91 -4 24.8 -2.399 -0.094
06:21 1021 30.15 850 25.1 -2.6 27.2 88 -4.3 24.2 -2.354 -0.093
06:22 1021 30.15 850 25.1 -2.7 27.1 89 -4.3 24.3 -2.445 -0.096
06:23 1021 30.15 850 25.1 -2.7 27.1 89 -4.2 24.4 -2.422 -0.095
06:24 1021 30.15 850 25.1 -2.7 27.1 90 -4.2 24.4 -2.422 -0.095
06:25 1021 30.15 850 25.1 -2.7 27.1 90 -4.2 24.4 -2.394 -0.094
06:26 1021 30.15 850 25.1 -2.7 27.1 89 -4.3 24.3 -2.405 -0.095
06:27 1021 30.15 851 25.13 -2.8 26.9 88 -4.6 23.8 -2.535 -0.1
06:28 1021 30.15 851 25.13 -3.1 26.5 87 -4.9 23.2 -2.7 -0.106
06:29 1021 30.15 851 25.13 -3.3 26.1 88 -5 22.9 -2.926 -0.115
06:30 1021 30.15 851 25.13 -3.5 25.8 88 -5.1 22.8 -3.102 -0.122
06:31 1021 30.15 850 25.1 -3.7 25.4 89 -5.3 22.5 -3.255 -0.128
06:32 1021 30.15 850 25.1 -3.8 25.2 90 -5.3 22.5 -3.414 -0.134
06:33 1021 30.15 850 25.1 -3.9 25 90 -5.2 22.6 -3.499 -0.138
06:34 1021 30.15 851 25.13 -4 24.8 91 -5.3 22.5 -3.578 -0.141
06:35 1021 30.15 851 25.13 -4 24.7 92 -5.2 22.6 -3.584 -0.141
06:36 1021 30.15 851 25.13 -4.1 24.7 92 -5.2 22.6 -3.669 -0.144
06:37 1021 30.15 851 25.13 -4.1 24.6 91 -5.3 22.4 -3.692 -0.145
06:38 1021 30.15 851 25.13 -4.2 24.4 92 -5.3 22.5 -3.737 -0.147
06:39 1021 30.15 850 25.1 -4.1 24.6 94 -5 23 -3.658 -0.144
06:40 1021 30.15 851 25.13 -4 24.8 94 -4.9 23.3 -3.578 -0.141
06:41 1021 30.15 850 25.1 -3.9 24.9 94 -4.8 23.3 -3.499 -0.138
06:42 1021 30.15 850 25.1 -3.8 25.2 93 -4.7 23.5 -3.425 -0.135
06:43 1021 30.15 850 25.1 -3.9 25 93 -4.8 23.3 -3.414 -0.134
06:44 1021 30.15 850 25.1 -3.8 25.2 94 -4.7 23.6 -3.374 -0.133
06:45 1021 30.15 850 25.1 -3.6 25.5 94 -4.4 24.1 -3.238 -0.127
06:46 1021 30.15 850 25.1 -3.5 25.8 95 -4.2 24.4 -3.079 -0.121
06:47 1021 30.15 850 25.1 -3.3 26 93 -4.3 24.3 -3.006 -0.118
06:48 1021 30.15 850 25.1 -3.3 26 93 -4.4 24.1 -2.955 -0.116
06:49 1021 30.15 850 25.1 -3.3 26 91 -4.5 23.8 -3.006 -0.118
06:50 1021 30.15 850 25.1 -3.4 25.9 92 -4.6 23.8 -3.062 -0.121
06:51 1021 30.15 850 25.1 -3.3 26 93 -4.3 24.2 -2.977 -0.117
06:52 1021 30.15 850 25.1 -3.3 26.1 92 -4.3 24.2 -2.881 -0.113
06:53 1021 30.15 850 25.1 -3.3 26.1 91 -4.5 23.8 -2.966 -0.117
06:54 1021 30.15 850 25.1 -3.4 25.9 91 -4.7 23.6 -3 -0.118
06:55 1021 30.15 850 25.1 -3.5 25.7 91 -4.8 23.4 -3.125 -0.123
06:56 1021 30.15 850 25.1 -3.6 25.6 90 -5 23 -3.198 -0.126
06:57 1021 30.15 850 25.1 -3.7 25.3 89 -5.2 22.6 -3.329 -0.131
06:58 1021 30.15 850 25.1 -3.9 24.9 89 -5.5 22.1 -3.504 -0.138
06:59 1021 30.15 850 25.1 -4.2 24.5 90 -5.6 22 -3.703 -0.146
07:00 1021 30.15 850 25.1 -4.3 24.3 92 -5.4 22.2 -3.799 -0.15
07:01 1021 30.15 850 25.1 -4.3 24.3 92 -5.4 22.3 -3.845 -0.151
07:02 1021 30.15 850 25.1 -4.2 24.4 93 -5.2 22.6 -3.828 -0.151
07:03 1021 30.15 850 25.1 -4.2 24.4 93 -5.2 22.6 -3.782 -0.149
07:04 1021 30.15 850 25.1 -4.2 24.4 92 -5.3 22.5 -3.828 -0.151
07:05 1021 30.15 850 25.1 -4.2 24.4 93 -5.2 22.6 -3.811 -0.15
07:06 1021 30.15 850 25.1 -4.2 24.5 93 -5.2 22.7 -3.771 -0.148
07:07 1021 30.15 850 25.1 -4.2 24.5 93 -5.1 22.8 -3.743 -0.147
07:08 1021 30.15 850 25.1 -4.1 24.7 93 -5 23 -3.663 -0.144
07:09 1021 30.15 850 25.1 -4 24.9 93 -4.9 23.2 -3.612 -0.142
07:10 1021 30.15 850 25.1 -3.9 25 93 -4.9 23.3 -3.487 -0.137
07:11 1021 30.15 850 25.1 -3.8 25.2 94 -4.7 23.6 -3.425 -0.135
07:12 1021 30.15 850 25.1 -3.7 25.4 93 -4.7 23.6 -3.3 -0.13
07:13 1021 30.15 850 25.1 -3.6 25.6 92 -4.6 23.7 -3.215 -0.127
07:14 1021 30.15 850 25.1 -3.5 25.7 92 -4.6 23.7 -3.096 -0.122
07:15 1021 30.15 850 25.1 -3.4 25.9 91 -4.6 23.7 -3.057 -0.12
07:16 1021 30.15 850 25.1 -3.4 25.9 90 -4.8 23.4 -3.068 -0.121
07:17 1021 30.15 850 25.1 -3.5 25.7 90 -4.9 23.2 -3.13 -0.123
07:18 1021 30.15 850 25.1 -3.6 25.5 90 -5.1 22.9 -3.266 -0.129
07:19 1021 30.15 850 25.1 -3.7 25.3 91 -5 23 -3.306 -0.13
07:20 1020 30.12 850 25.1 -3.7 25.3 91 -5 23 -3.363 -0.132
07:21 1020 30.12 850 25.1 -3.8 25.2 91 -5 22.9 -3.414 -0.134
07:22 1020 30.12 850 25.1 -3.7 25.3 92 -4.8 23.3 -3.34 -0.131
07:23 1020 30.12 850 25.1 -3.7 25.4 92 -4.8 23.4 -3.238 -0.127
07:24 1020 30.12 850 25.1 -3.6 25.6 91 -4.8 23.4 -3.21 -0.126
07:25 1020 30.12 850 25.1 -3.5 25.7 92 -4.7 23.5 -3.125 -0.123
07:26 1020 30.12 850 25.1 -3.5 25.6 90 -4.9 23.1 -3.159 -0.124
07:27 1020 30.12 850 25.1 -3.7 25.4 89 -5.1 22.7 -3.289 -0.129
07:28 1020 30.12 850 25.1 -3.8 25.1 90 -5.2 22.7 -3.402 -0.134
07:29 1020 30.12 850 25.1 -3.8 25.2 93 -4.8 23.3 -3.374 -0.133
07:30 1020 30.12 850 25.1 -3.7 25.4 92 -4.8 23.4 -3.261 -0.128
07:31 1020 30.12 849 25.07 -3.6 25.5 91 -4.8 23.3 -3.238 -0.127
07:32 1020 30.12 849 25.07 -3.6 25.4 90 -5 23 -3.278 -0.129
07:33 1020 30.12 849 25.07 -3.7 25.4 91 -4.9 23.2 -3.317 -0.131
07:34 1020 30.12 849 25.07 -3.7 25.3 91 -4.9 23.2 -3.3 -0.13
07:35 1020 30.12 849 25.07 -3.7 25.4 92 -4.9 23.2 -3.278 -0.129
07:36 1020 30.12 849 25.07 -3.7 25.4 91 -4.9 23.1 -3.3 -0.13
07:37 1020 30.12 849 25.07 -3.7 25.4 91 -4.9 23.2 -3.306 -0.13
07:38 1020 30.12 849 25.07 -3.7 25.4 92 -4.8 23.3 -3.283 -0.129
07:39 1020 30.12 849 25.07 -3.6 25.5 91 -4.8 23.3 -3.198 -0.126
07:40 1020 30.12 849 25.07 -3.7 25.4 90 -5.1 22.9 -3.238 -0.127
07:41 1020 30.12 849 25.07 -3.7 25.3 91 -5 23 -3.312 -0.13
07:42 1020 30.12 849 25.07 -3.7 25.4 92 -4.8 23.3 -3.312 -0.13
07:43 1020 30.12 849 25.07 -3.6 25.6 92 -4.6 23.7 -3.21 -0.126
07:44 1020 30.12 849 25.07 -3.4 25.8 93 -4.5 24 -3.04 -0.12
07:45 1020 30.12 849 25.07 -3.4 25.9 92 -4.5 23.8 -2.943 -0.116
07:46 1020 30.12 849 25.07 -3.3 26 91 -4.6 23.8 -2.949 -0.116
07:47 1020 30.12 849 25.07 -3.3 26 91 -4.6 23.7 -2.943 -0.116
07:48 1020 30.12 849 25.07 -3.3 26 92 -4.5 24 -2.938 -0.116
07:49 1020 30.12 849 25.07 -3.2 26.3 92 -4.3 24.3 -2.836 -0.112
07:50 1020 30.12 849 25.07 -3.1 26.4 90 -4.5 23.9 -2.768 -0.109
07:51 1020 30.12 849 25.07 -3.2 26.2 90 -4.7 23.6 -2.847 -0.112
07:52 1020 30.12 849 25.07 -3.3 26 89 -4.8 23.3 -2.949 -0.116
07:53 1020 30.12 849 25.07 -3.5 25.8 88 -5.2 22.7 -3.096 -0.122
07:54 1020 30.12 849 25.07 -3.7 25.4 88 -5.4 22.3 -3.363 -0.132
07:55 1020 30.12 849 25.07 -3.9 25.1 88 -5.5 22.1 -3.584 -0.141
07:56 1020 30.12 849 25.07 -4 24.8 89 -5.5 22.1 -3.652 -0.144
07:57 1020 30.12 849 25.07 -4 24.8 92 -5.1 22.8 -3.612 -0.142
07:58 1020 30.12 849 25.07 -3.7 25.3 94 -4.6 23.8 -3.363 -0.132
07:59 1020 30.12 849 25.07 -3.4 25.9 93 -4.4 24.2 -3.136 -0.123
08:00 1020 30.12 849 25.07 -3.2 26.3 92 -4.4 24.1 -2.96 -0.117
08:01 1020 30.12 849 25.07 -3.1 26.5 90 -4.4 24 -2.87 -0.113
08:02 1020 30.12 849 25.07 -2.9 26.7 91 -4.1 24.5 -2.649 -0.104
08:03 1020 30.12 849 25.07 -2.7 27.1 91 -4.1 24.7 -2.433 -0.096
08:04 1020 30.12 849 25.07 -2.6 27.3 90 -4 24.8 -2.32 -0.091
08:05 1020 30.12 849 25.07 -2.5 27.4 90 -4 24.8 -2.235 -0.088
08:06 1020 30.12 850 25.1 -2.4 27.7 89 -4 24.8 -2.122 -0.084
08:07 1020 30.12 849 25.07 -2.4 27.7 87 -4.3 24.2 -2.11 -0.083
08:08 1020 30.12 850 25.1 -2.7 27.2 84 -5 22.9 -2.343 -0.092
08:09 1020 30.12 850 25.1 -3.1 26.5 87 -5 23 -2.683 -0.106
08:10 1020 30.12 850 25.1 -3.1 26.4 89 -4.7 23.5 -2.785 -0.11
08:11 1020 30.12 850 25.1 -3.1 26.5 90 -4.5 23.9 -2.728 -0.107
08:12 1020 30.12 850 25.1 -3 26.6 89 -4.6 23.8 -2.62 -0.103
08:13 1020 30.12 850 25.1 -3 26.6 89 -4.5 23.9 -2.603 -0.102
08:14 1020 30.12 850 25.1 -2.9 26.8 88 -4.6 23.7 -2.467 -0.097
08:15 1020 30.12 850 25.1 -2.9 26.8 89 -4.5 23.9 -2.496 -0.098
08:16 1020 30.12 850 25.1 -2.7 27.2 89 -4.3 24.3 -2.354 -0.093
08:17 1020 30.12 850 25.1 -2.5 27.6 88 -4.2 24.4 -2.144 -0.084
08:18 1020 30.12 850 25.1 -2.3 27.9 87 -4.2 24.4 -2.008 -0.079
08:19 1020 30.12 850 25.1 -2.2 28 85 -4.4 24 -1.957 -0.077
08:20 1020 30.12 850 25.1 -2.3 27.8 85 -4.6 23.8 -2.008 -0.079
08:21 1020 30.12 850 25.1 -2.4 27.7 86 -4.4 24 -2.042 -0.08
08:22 1020 30.12 850 25.1 -2.3 27.9 86 -4.3 24.3 -1.963 -0.077
08:23 1021 30.15 850 25.1 -2.2 28 86 -4.2 24.5 -1.901 -0.075
08:24 1021 30.15 850 25.1 -2.1 28.3 86 -4.1 24.6 -1.77 -0.07
08:25 1021 30.15 850 25.1 -2.1 28.3 85 -4.2 24.4 -1.725 -0.068
08:26 1021 30.15 850 25.1 -2.1 28.3 86 -4.1 24.6 -1.759 -0.069
08:27 1021 30.15 850 25.1 -2 28.4 87 -3.9 25 -1.651 -0.065
08:28 1021 30.15 850 25.1 -1.8 28.7 86 -3.8 25.1 -1.51 -0.059
08:29 1021 30.15 850 25.1 -1.6 29.1 85 -3.8 25.1 -1.351 -0.053
08:30 1021 30.15 850 25.1 -1.5 29.3 85 -3.8 25.2 -1.232 -0.049
08:31 1021 30.15 850 25.1 -1.4 29.5 84 -3.7 25.3 -1.085 -0.043
08:32 1021 30.15 850 25.1 -1.3 29.6 85 -3.6 25.5 -0.988 -0.039
08:33 1021 30.15 850 25.1 -1.2 29.8 85 -3.5 25.7 -0.932 -0.037
08:34 1021 30.15 850 25.1 -1.2 29.9 85 -3.4 25.8 -0.881 -0.035
08:35 1021 30.15 850 25.1 -1.2 29.9 84 -3.5 25.8 -0.784 -0.031
08:36 1021 30.15 850 25.1 -1.2 29.9 85 -3.4 25.9 -0.711 -0.028
08:37 1021 30.15 850 25.1 -1.2 29.9 85 -3.3 26 -0.705 -0.028
08:38 1021 30.15 850 25.1 -1.1 29.9 86 -3.3 26.1 -0.711 -0.028
08:39 1021 30.15 850 25.1 -1.1 30.1 86 -3.1 26.3 -0.66 -0.026
08:40 1021 30.15 850 25.1 -1 30.2 85 -3.1 26.4 -0.552 -0.022
08:41 1021 30.15 850 25.1 -0.9 30.4 85 -3.1 26.5 -0.478 -0.019
08:42 1021 30.15 850 25.1 -0.8 30.5 85 -3 26.6 -0.382 -0.015
08:43 1021 30.15 850 25.1 -0.8 30.6 85 -2.9 26.7 -0.331 -0.013
08:44 1021 30.15 850 25.1 -0.7 30.7 86 -2.9 26.8 -0.28 -0.011
08:45 1021 30.15 850 25.1 -0.7 30.7 86 -2.8 27 -0.229 -0.009
08:46 1021 30.15 850 25.1 -0.8 30.6 86 -2.8 27 -0.28 -0.011
08:47 1021 30.15 850 25.1 -0.9 30.5 87 -2.8 27 -0.359 -0.014
08:48 1021 30.15 850 25.1 -0.9 30.5 87 -2.7 27.1 -0.365 -0.014
08:49 1021 30.15 850 25.1 -0.9 30.5 88 -2.7 27.2 -0.389 -0.015
08:50 1021 30.15 850 25.1 -0.8 30.5 88 -2.6 27.3 -0.349 -0.014
08:51 1021 30.15 850 25.1 -0.8 30.6 88 -2.6 27.4 -0.282 -0.011
08:52 1021 30.15 850 25.1 -0.7 30.7 87 -2.5 27.4 -0.271 -0.011
08:53 1021 30.15 850 25.1 -0.6 30.9 87 -2.5 27.5 -0.175 -0.007
08:54 1021 30.15 850 25.1 -0.6 31 87 -2.4 27.6 -0.09 -0.004
08:55 1021 30.15 850 25.1 -0.5 31.1 87 -2.4 27.7 -0.028 -0.001
08:56 1021 30.15 850 25.1 -0.4 31.3 87 -2.3 27.9 0.023 0.001
08:57 1021 30.15 850 25.1 -0.3 31.4 87 -2.2 28.1 0.102 0.004
08:58 1021 30.15 850 25.1 -0.3 31.5 87 -2.2 28 0.124 0.005
08:59 1021 30.15 850 25.1 -0.3 31.5 86 -2.3 27.8 0.141 0.006
09:00 1021 30.15 850 25.1 -0.3 31.5 86 -2.3 27.9 0.175 0.007
09:01 1021 30.15 850 25.1 -0.3 31.5 86 -2.3 27.8 0.123 0.005
09:02 1021 30.15 850 25.1 -0.3 31.5 86 -2.3 27.8 0.174 0.007
09:03 1021 30.15 850 25.1 -0.2 31.6 87 -2.2 28.1 0.186 0.007
09:04 1021 30.15 850 25.1 -0.2 31.6 87 -2.2 28.1 0.151 0.006
09:05 1020 30.12 850 25.1 -0.2 31.6 87 -2.1 28.2 0.174 0.007
09:06 1020 30.12 850 25.1 -0.2 31.6 87 -2.1 28.1 0.201 0.008
09:07 1020 30.12 850 25.1 -0.2 31.6 88 -2 28.4 0.223 0.009
09:08 1020 30.12 850 25.1 -0.2 31.6 88 -1.9 28.5 0.223 0.009
09:09 1020 30.12 850 25.1 -0.2 31.7 89 -1.8 28.7 0.239 0.009
09:10 1020 30.12 850 25.1 -0.2 31.6 89 -1.8 28.8 0.256 0.01
09:11 1020 30.12 850 25.1 -0.2 31.7 89 -1.8 28.8 0.262 0.01
09:12 1020 30.12 850 25.1 -0.1 31.8 89 -1.7 28.9 0.306 0.012
09:13 1020 30.12 850 25.1 -0 31.9 89 -1.6 29.1 0.357 0.014
09:14 1020 30.12 850 25.1 0 32 89 -1.6 29.1 0.442 0.017
09:15 1020 30.12 850 25.1 0.1 32.1 89 -1.6 29.1 0.515 0.02
09:16 1020 30.12 850 25.1 0.2 32.3 89 -1.5 29.3 0.577 0.023
09:17 1020 30.12 850 25.1 0.2 32.4 89 -1.5 29.4 0.622 0.024
09:18 1020 30.12 850 25.1 0.2 32.3 89 -1.5 29.4 0.661 0.026
09:19 1020 30.12 850 25.1 0.3 32.5 89 -1.4 29.5 0.684 0.027
09:20 1020 30.12 850 25.1 0.3 32.5 89 -1.4 29.6 0.706 0.028
09:21 1020 30.12 850 25.1 0.3 32.6 89 -1.3 29.6 0.746 0.029
09:22 1020 30.12 850 25.1 0.3 32.6 89 -1.3 29.7 0.785 0.031
09:23 1020 30.12 850 25.1 0.4 32.7 89 -1.2 29.8 0.814 0.032
09:24 1020 30.12 850 25.1 0.4 32.7 89 -1.2 29.8 0.824 0.032
09:25 1020 30.12 850 25.1 0.4 32.7 89 -1.2 29.8 0.83 0.033
09:26 1020 30.12 850 25.1 0.4 32.8 89 -1.2 29.9 0.887 0.035
09:27 1020 30.12 850 25.1 0.5 32.8 89 -1.2 29.9 0.892 0.035
09:28 1020 30.12 850 25.1 0.5 33 89 -1.1 30 0.909 0.036
09:29 1020 30.12 850 25.1 0.6 33 89 -1.1 30.1 0.988 0.039
09:30 1020 30.12 850 25.1 0.6 33 89 -1 30.1 1.022 0.04
09:31 1020 30.12 850 25.1 0.6 33.1 89 -0.9 30.3 1.067 0.042
09:32 1020 30.12 850 25.1 0.7 33.3 89 -0.8 30.5 1.135 0.045
09:33 1020 30.12 850 25.1 0.7 33.3 90 -0.8 30.5 1.141 0.045
09:34 1020 30.12 849 25.07 0.7 33.3 89 -0.8 30.5 1.203 0.047
09:35 1020 30.12 849 25.07 0.8 33.4 89 -0.8 30.6 1.265 0.05
09:36 1020 30.12 850 25.1 0.9 33.5 89 -0.7 30.7 1.311 0.052
09:37 1020 30.12 849 25.07 0.9 33.6 89 -0.7 30.8 1.328 0.052
09:38 1020 30.12 850 25.1 0.9 33.7 89 -0.6 30.9 1.401 0.055
09:39 1020 30.12 850 25.1 1 33.8 89 -0.5 31 1.469 0.058
09:40 1020 30.12 849 25.07 1.1 33.9 89 -0.5 31.1 1.537 0.061
09:41 1020 30.12 849 25.07 1.2 34.1 90 -0.4 31.3 1.628 0.064
09:42 1020 30.12 849 25.07 1.3 34.3 90 -0.2 31.6 1.735 0.068
09:43 1020 30.12 850 25.1 1.4 34.4 90 -0.1 31.8 1.837 0.072
09:44 1020 30.12 850 25.1 1.4 34.6 89 -0.2 31.7 1.916 0.075
09:45 1020 30.12 850 25.1 1.5 34.7 90 -0 32 2.017 0.079
09:46 1020 30.12 850 25.1 1.6 34.9 89 -0 32 2.102 0.083
09:47 1020 30.12 850 25.1 1.8 35.2 89 0.1 32.2 2.22 0.087
09:48 1020 30.12 850 25.1 1.9 35.4 88 0.1 32.1 2.271 0.089
09:49 1020 30.12 850 25.1 2 35.5 86 -0.1 31.7 2.356 0.093
09:50 1020 30.12 850 25.1 2 35.6 85 -0.2 31.6 2.366 0.093
09:51 1020 30.12 850 25.1 2 35.6 84 -0.4 31.3 2.394 0.094
09:52 1020 30.12 850 25.1 2.1 35.8 82 -0.7 30.8 2.377 0.094
09:53 1020 30.12 850 25.1 2.1 35.7 82 -0.7 30.8 2.399 0.094
09:54 1020 30.12 850 25.1 2.1 35.8 81 -0.8 30.6 2.439 0.096
09:55 1020 30.12 849 25.07 2.1 35.9 82 -0.6 30.9 2.495 0.098
09:56 1020 30.12 850 25.1 2.2 36 80 -0.9 30.4 2.602 0.102
09:57 1020 30.12 850 25.1 2.3 36.1 80 -0.8 30.5 2.608 0.103
09:58 1020 30.12 849 25.07 2.3 36.1 77 -1.4 29.4 2.608 0.103
09:59 1020 30.12 850 25.1 2.3 36.2 79 -1 30.3 2.602 0.102
10:00 1020 30.12 850 25.1 2.4 36.3 79 -0.9 30.4 2.704 0.106
10:01 1020 30.12 850 25.1 2.4 36.4 82 -0.4 31.3 2.794 0.11
10:02 1020 30.12 850 25.1 2.5 36.4 79 -0.9 30.4 2.855 0.112
10:03 1020 30.12 850 25.1 2.5 36.5 77 -1.2 29.8 2.9 0.114
10:04 1020 30.12 849 25.07 2.5 36.6 78 -0.9 30.4 2.883 0.114
10:05 1020 30.12 849 25.07 2.5 36.5 81 -0.5 31.1 2.899 0.114
10:06 1020 30.12 849 25.07 2.6 36.6 77 -1.1 30.1 2.887 0.114
10:07 1020 30.12 849 25.07 2.5 36.6 78 -0.9 30.5 2.876 0.113
10:08 1020 30.12 849 25.07 2.5 36.5 77 -1.2 29.9 2.881 0.113
10:09 1020 30.12 849 25.07 2.5 36.5 78 -1 30.2 2.875 0.113
10:10 1020 30.12 849 25.07 2.5 36.5 78 -1 30.2 2.869 0.113
10:11 1020 30.12 849 25.07 2.5 36.4 79 -0.8 30.5 2.868 0.113
10:12 1020 30.12 849 25.07 2.5 36.5 80 -0.6 30.9 2.891 0.114
10:13 1020 30.12 849 25.07 2.5 36.5 80 -0.5 31 2.936 0.116
10:14 1020 30.12 849 25.07 2.5 36.4 78 -1 30.2 2.896 0.114
10:15 1020 30.12 849 25.07 2.5 36.4 77 -1.1 30 2.867 0.113
10:16 1020 30.12 849 25.07 2.5 36.4 76 -1.3 29.7 2.822 0.111
10:17 1020 30.12 849 25.07 2.4 36.3 78 -1.1 30 2.793 0.11
10:18 1020 30.12 849 25.07 2.4 36.3 77 -1.3 29.7 2.771 0.109
10:19 1020 30.12 849 25.07 2.4 36.3 78 -1.1 30 2.793 0.11
10:20 1020 30.12 849 25.07 2.3 36.2 77 -1.3 29.6 2.793 0.11
10:21 1020 30.12 849 25.07 2.4 36.3 73 -1.9 28.6 2.787 0.11
10:22 1020 30.12 849 25.07 2.4 36.2 74 -1.8 28.7 2.764 0.109
10:23 1020 30.12 849 25.07 2.3 36.2 75 -1.7 28.9 2.713 0.107
10:24 1020 30.12 849 25.07 2.4 36.3 76 -1.4 29.5 2.77 0.109
10:25 1020 30.12 849 25.07 2.4 36.3 75 -1.6 29.1 2.764 0.109
10:26 1020 30.12 849 25.07 2.4 36.3 75 -1.6 29.1 2.752 0.108
10:27 1020 30.12 849 25.07 2.4 36.2 76 -1.4 29.5 2.769 0.109
10:28 1020 30.12 849 25.07 2.4 36.3 76 -1.4 29.5 2.803 0.11
10:29 1020 30.12 849 25.07 2.4 36.3 78 -1.2 29.9 2.826 0.111
10:30 1020 30.12 849 25.07 2.4 36.3 77 -1.2 29.9 2.837 0.112
10:31 1020 30.12 849 25.07 2.4 36.3 75 -1.6 29.1 2.848 0.112
10:32 1020 30.12 849 25.07 2.5 36.4 76 -1.3 29.7 2.871 0.113
10:33 1020 30.12 849 25.07 2.5 36.4 78 -1 30.3 2.882 0.113
10:34 1020 30.12 849 25.07 2.5 36.6 77 -1 30.2 2.99 0.118
10:35 1020 30.12 849 25.07 2.6 36.7 77 -1 30.2 3.058 0.12
10:36 1020 30.12 849 25.07 2.8 37 78 -0.7 30.8 3.188 0.126
10:37 1020 30.12 849 25.07 2.8 37.1 78 -0.6 30.9 3.312 0.13
10:38 1020 30.12 849 25.07 2.9 37.2 78 -0.6 30.9 3.414 0.134
10:39 1020 30.12 849 25.07 3 37.4 76 -0.9 30.4 3.482 0.137
10:40 1020 30.12 849 25.07 3 37.4 75 -1 30.3 3.55 0.14
10:41 1020 30.12 849 25.07 3.1 37.5 74 -1 30.1 3.578 0.141
10:42 1020 30.12 849 25.07 3.1 37.5 75 -1 30.2 3.652 0.144
10:43 1020 30.12 849 25.07 3.2 37.7 76 -0.6 30.9 3.765 0.148
10:44 1020 30.12 849 25.07 3.3 38 75 -0.6 30.8 3.844 0.151
10:45 1020 30.12 849 25.07 3.4 38.1 73 -1.1 30.1 3.946 0.155
10:46 1020 30.12 849 25.07 3.5 38.2 73 -0.8 30.5 4.007 0.158
10:47 1020 30.12 849 25.07 3.7 38.6 75 -0.3 31.4 4.177 0.164
10:48 1020 30.12 849 25.07 3.9 39 72 -0.7 30.7 4.409 0.174
10:49 1019 30.09 849 25.07 4.2 39.5 70 -0.8 30.6 4.663 0.184
10:50 1019 30.09 849 25.07 4.5 40.1 68 -0.9 30.4 4.748 0.187
10:51 1019 30.09 849 25.07 4.7 40.5 69 -0.5 31.1 4.878 0.192
10:52 1019 30.09 849 25.07 5 41 64 -1.1 30 5.154 0.203
10:53 1019 30.09 849 25.07 5.2 41.3 64 -1.2 29.9 5.245 0.206
10:54 1019 30.09 849 25.07 5.3 41.5 69 0 32.1 5.42 0.213
10:55 1019 30.09 849 25.07 5.3 41.5 67 -0.4 31.2 5.363 0.211
10:56 1019 30.09 849 25.07 5.2 41.4 67 -0.5 31.2 5.239 0.206
10:57 1019 30.09 849 25.07 5.1 41.1 65 -0.9 30.4 5.04 0.198
10:58 1019 30.09 849 25.07 4.9 40.9 67 -0.6 30.9 4.881 0.192
10:59 1020 30.12 849 25.07 4.8 40.7 69 -0.3 31.4 4.875 0.192
11:00 1020 30.12 849 25.07 4.8 40.6 74 0.5 32.9 4.869 0.192
11:01 1019 30.09 849 25.07 4.8 40.6 72 0.1 32.2 4.953 0.195
11:02 1019 30.09 849 25.07 4.8 40.7 66 -0.9 30.3 5.015 0.197
11:03 1019 30.09 849 25.07 4.8 40.6 65 -1.2 29.9 4.924 0.194
11:04 1019 30.09 849 25.07 4.7 40.5 64 -1.5 29.3 4.866 0.192
11:05 1019 30.09 849 25.07 4.7 40.4 64 -1.5 29.3 4.849 0.191
11:06 1019 30.09 849 25.07 4.7 40.5 65 -1.3 29.7 4.922 0.194
11:07 1019 30.09 849 25.07 4.9 40.8 63 -1.4 29.4 5.091 0.2
11:08 1019 30.09 848 25.04 5.1 41.1 64 -1.2 29.8 5.295 0.208
11:09 1019 30.09 848 25.04 5.2 41.4 63 -1.3 29.6 5.391 0.212
11:10 1019 30.09 848 25.04 5.3 41.5 62 -1.4 29.4 5.453 0.215
11:11 1019 30.09 848 25.04 5.3 41.6 62 -1.3 29.6 5.441 0.214
11:12 1019 30.09 848 25.04 5.2 41.4 61 -1.7 29 5.486 0.216
11:13 1019 30.09 848 25.04 5.2 41.3 61 -1.7 28.9 5.372 0.211
11:14 1019 30.09 848 25.04 5 41 61 -1.9 28.6 5.322 0.21
11:15 1019 30.09 848 25.04 5 40.9 63 -1.6 29.2 5.264 0.207
11:16 1019 30.09 848 25.04 4.9 40.8 64 -1.4 29.4 5.223 0.206
11:17 1019 30.09 848 25.04 4.9 40.9 64 -1.3 29.6 5.251 0.207
11:18 1019 30.09 848 25.04 4.9 40.9 63 -1.4 29.5 5.25 0.207
11:19 1019 30.09 848 25.04 5 41 65 -1.1 30.1 5.323 0.21
11:20 1019 30.09 848 25.04 5.1 41.2 66 -0.8 30.6 5.38 0.212
11:21 1019 30.09 848 25.04 5.2 41.3 67 -0.5 31.1 5.503 0.217
11:22 1019 30.09 848 25.04 5.2 41.4 66 -0.5 31.1 5.531 0.218
11:23 1019 30.09 848 25.04 5.2 41.4 66 -0.7 30.7 5.537 0.218
11:24 1019 30.09 848 25.04 5.3 41.5 64 -1 30.2 5.604 0.221
11:25 1019 30.09 848 25.04 5.4 41.7 66 -0.5 31.1 5.581 0.22
11:26 1019 30.09 848 25.04 5.4 41.6 64 -0.9 30.4 5.632 0.222
11:27 1019 30.09 848 25.04 5.3 41.5 66 -0.5 31.1 5.641 0.222
11:28 1019 30.09 848 25.04 5.4 41.7 66 -0.4 31.2 5.68 0.224
11:29 1019 30.09 848 25.04 5.4 41.7 66 -0.5 31.1 5.726 0.225
11:30 1019 30.09 848 25.04 5.5 41.9 63 -1 30.1 5.837 0.23
11:31 1019 30.09 848 25.04 5.6 42 63 -0.9 30.3 5.865 0.231
11:32 1019 30.09 848 25.04 5.6 42.1 63 -1 30.3 5.911 0.233
11:33 1019 30.09 848 25.04 5.7 42.3 65 -0.4 31.3 6.017 0.237
11:34 1019 30.09 848 25.04 5.8 42.4 64 -0.5 31 6.09 0.24
11:35 1019 30.09 848 25.04 5.9 42.6 62 -0.9 30.4 6.169 0.243
11:36 1019 30.09 848 25.04 6 42.7 61 -0.9 30.3 6.151 0.242
11:37 1019 30.09 848 25.04 6 42.8 63 -0.4 31.2 6.219 0.245
11:38 1019 30.09 848 25.04 6.1 43 61 -0.9 30.4 6.349 0.25
11:39 1019 30.09 848 25.04 6.2 43.2 63 -0.4 31.3 6.433 0.253
11:40 1019 30.09 848 25.04 6.2 43.2 57 -1.7 28.9 6.484 0.255
11:41 1019 30.09 848 25.04 6.2 43.2 59 -1.1 30 6.501 0.256
11:42 1019 30.09 848 25.04 6.3 43.4 57 -1.4 29.4 6.562 0.258
11:43 1019 30.09 848 25.04 6.5 43.6 60 -0.7 30.8 6.676 0.263
11:44 1019 30.09 848 25.04 6.6 43.9 60 -0.6 30.8 6.8 0.268
11:45 1019 30.09 848 25.04 6.6 43.9 59 -0.8 30.5 6.822 0.269
11:46 1019 30.09 848 25.04 6.5 43.7 59 -1 30.2 6.833 0.269
11:47 1019 30.09 848 25.04 6.5 43.8 58 -1.1 30.1 6.754 0.266
11:48 1019 30.09 848 25.04 6.4 43.6 59 -0.9 30.4 6.618 0.261
11:49 1019 30.09 848 25.04 6.4 43.5 59 -1.2 29.9 6.471 0.255
11:50 1019 30.09 848 25.04 6.3 43.4 59 -1 30.2 6.476 0.255
11:51 1018 30.06 848 25.04 6.4 43.6 58 -1.2 29.9 6.566 0.259
11:52 1019 30.09 848 25.04 6.5 43.8 58 -1.1 30.1 6.617 0.261
11:53 1019 30.09 848 25.04 6.7 44 61 -0.3 31.4 6.735 0.265
11:54 1019 30.09 848 25.04 6.8 44.2 57 -1.1 30 6.978 0.275
11:55 1019 30.09 848 25.04 6.9 44.4 57 -1.1 30.1 6.972 0.274
11:56 1019 30.09 848 25.04 6.7 44.1 56 -1.5 29.3 6.807 0.268
11:57 1019 30.09 848 25.04 6.6 43.9 56 -1.4 29.5 6.755 0.266
11:58 1019 30.09 848 25.04 6.5 43.8 58 -1.2 29.8 6.716 0.264
11:59 1019 30.09 848 25.04 6.6 43.8 61 -0.5 31.1 6.669 0.263
12:00 1019 30.09 848 25.04 6.6 43.9 57 -1.4 29.5 6.787 0.267
12:01 1019 30.09 848 25.04 6.7 44.1 57 -1.2 29.8 6.905 0.272
12:02 1019 30.09 848 25.04 6.8 44.3 55 -1.6 29.1 7.04 0.277
12:03 1019 30.09 848 25.04 6.9 44.3 56 -1.2 29.9 7.11 0.28
12:04 1019 30.09 848 25.04 6.9 44.4 56 -1.2 29.8 7.22 0.284
12:05 1019 30.09 848 25.04 6.9 44.5 57 -1.1 30.1 7.24 0.285
12:06 1019 30.09 848 25.04 7 44.5 58 -0.7 30.7 7.27 0.286
12:07 1019 30.09 848 25.04 7 44.6 56 -1.1 30 7.29 0.287
12:08 1019 30.09 848 25.04 7 44.6 56 -1.1 30 7.18 0.283
12:09 1019 30.09 848 25.04 6.9 44.5 59 -0.5 31 7.06 0.278
12:10 1019 30.09 848 25.04 6.8 44.2 60 -0.4 31.2 7.02 0.276
12:11 1019 30.09 848 25.04 6.8 44.2 58 -0.9 30.3 6.978 0.275
12:12 1019 30.09 848 25.04 6.8 44.3 57 -1.1 30 6.978 0.275
12:13 1019 30.09 848 25.04 6.9 44.4 57 -1.1 30.1 7 0.276
12:14 1019 30.09 848 25.04 6.9 44.5 59 -0.6 31 7.05 0.278
12:15 1019 30.09 848 25.04 7 44.6 59 -0.4 31.3 7.17 0.282
12:16 1019 30.09 848 25.04 7.1 44.7 56 -1.2 29.9 7.3 0.287
12:17 1019 30.09 848 25.04 7.2 45 56 -0.9 30.4 7.44 0.293
12:18 1019 30.09 848 25.04 7.4 45.3 58 -0.4 31.3 7.59 0.299
12:19 1019 30.09 848 25.04 7.4 45.3 55 -1 30.2 7.67 0.302
12:20 1019 30.09 848 25.04 7.4 45.2 55 -1.2 29.9 7.59 0.299
12:21 1019 30.09 848 25.04 7.3 45.2 59 -0.1 31.8 7.49 0.295
12:22 1019 30.09 848 25.04 7.4 45.4 59 -0.1 31.9 7.56 0.298
12:23 1019 30.09 848 25.04 7.5 45.5 54 -1.3 29.7 7.62 0.3
12:24 1019 30.09 848 25.04 7.5 45.4 54 -1.2 29.9 7.65 0.301
12:25 1019 30.09 848 25.04 7.5 45.4 55 -1.1 30.1 7.69 0.303
12:26 1019 30.09 848 25.04 7.5 45.5 58 -0.2 31.6 7.76 0.306
12:27 1019 30.09 848 25.04 7.8 46 52 -1.3 29.6 7.96 0.313
12:28 1019 30.09 848 25.04 7.7 45.9 54 -1 30.2 7.97 0.314
12:29 1019 30.09 848 25.04 7.6 45.6 52 -1.5 29.2 7.86 0.309
12:30 1019 30.09 848 25.04 7.4 45.3 53 -1.7 29 7.71 0.304
12:31 1019 30.09 848 25.04 7.3 45.1 54 -1.4 29.6 7.58 0.298
12:32 1019 30.09 848 25.04 7.2 44.9 56 -1.1 30.1 7.55 0.297
12:33 1019 30.09 848 25.04 7.3 45.1 51 -2.1 28.3 7.66 0.302
12:34 1019 30.09 848 25.04 7.4 45.3 55 -1 30.2 7.7 0.303
12:35 1019 30.09 848 25.04 7.6 45.7 50 -2 28.4 7.91 0.311
12:36 1018 30.06 848 25.04 7.7 45.8 49 -2.3 27.8 7.94 0.313
12:37 1018 30.06 848 25.04 7.8 46 52 -1.5 29.4 7.91 0.311
12:38 1018 30.06 848 25.04 7.9 46.1 52 -1.2 29.8 8.11 0.319
12:39 1018 30.06 848 25.04 7.8 46.1 53 -1.1 30 8.14 0.32
12:40 1018 30.06 848 25.04 7.8 46.1 51 -1.7 28.9 8.17 0.322
12:41 1018 30.06 848 25.04 7.9 46.3 50 -1.7 28.9 8.18 0.322
12:42 1018 30.06 848 25.04 8 46.4 50 -1.8 28.7 8.15 0.321
12:43 1018 30.06 848 25.04 8.1 46.5 50 -1.6 29.2 8.17 0.322
12:44 1018 30.06 848 25.04 8.1 46.5 51 -1.5 29.3 8.2 0.323
12:45 1018 30.06 848 25.04 8.1 46.6 52 -1.3 29.7 8.3 0.327
12:46 1018 30.06 848 25.04 8 46.5 53 -1 30.3 8.28 0.326
12:47 1018 30.06 848 25.04 8.1 46.6 52 -1.2 29.9 8.4 0.331
12:48 1018 30.06 848 25.04 8.2 46.7 49 -1.8 28.8 8.39 0.33
12:49 1018 30.06 848 25.04 8 46.5 51 -1.4 29.4 8.27 0.326
12:50 1018 30.06 847 25.01 8 46.4 49 -1.9 28.6 8.23 0.324
12:51 1018 30.06 847 25.01 8 46.4 52 -1.2 29.8 8.2 0.323
12:52 1018 30.06 847 25.01 7.9 46.3 51 -1.5 29.4 8.13 0.32
12:53 1018 30.06 847 25.01 8 46.3 52 -1.3 29.6 8.25 0.325
12:54 1018 30.06 847 25.01 8.1 46.5 52 -1.3 29.7 8.34 0.328
12:55 1018 30.06 847 25.01 8.1 46.7 51 -1.3 29.6 8.42 0.331
12:56 1018 30.06 847 25.01 8.1 46.5 50 -1.7 28.9 8.34 0.328
12:57 1018 30.06 847 25.01 7.9 46.3 52 -1.4 29.4 8.16 0.321
12:58 1018 30.06 847 25.01 7.8 46 53 -1.1 29.9 8.12 0.32
12:59 1018 30.06 847 25.01 7.8 46.1 53 -1.2 29.8 8.12 0.32
13:00 1018 30.06 847 25.01 7.8 46.1 51 -1.6 29.1 8.16 0.321
13:01 1018 30.06 847 25.01 7.8 46.1 52 -1.3 29.6 8.18 0.322
13:02 1018 30.06 847 25.01 7.9 46.3 52 -1.3 29.6 8.23 0.324
13:03 1018 30.06 847 25.01 7.9 46.3 49 -2 28.4 8.27 0.326
13:04 1018 30.06 847 25.01 8 46.4 51 -1.4 29.4 8.32 0.328
13:05 1018 30.06 847 25.01 8.1 46.6 54 -0.7 30.8 8.43 0.332
13:06 1018 30.06 847 25.01 8.2 46.8 48 -2 28.4 8.58 0.338
13:07 1018 30.06 847 25.01 8.3 46.9 50 -1.5 29.3 8.54 0.336
13:08 1018 30.06 847 25.01 8.2 46.8 51 -1.2 29.9 8.5 0.335
13:09 1018 30.06 847 25.01 8.2 46.8 54 -0.6 30.9 8.54 0.336
13:10 1018 30.06 847 25.01 8.4 47 51 -1.2 29.8 8.67 0.341
13:11 1018 30.06 847 25.01 8.5 47.3 52 -0.7 30.7 8.77 0.345
13:12 1018 30.06 847 25.01 8.7 47.6 52 -0.6 30.9 9 0.354
13:13 1018 30.06 847 25.01 8.9 48 51 -0.6 30.9 9.2 0.362
13:14 1018 30.06 847 25.01 9 48.2 49 -1.1 29.9 9.34 0.368
13:15 1018 30.06 847 25.01 9.1 48.4 48 -1.4 29.5 9.33 0.367
13:16 1018 30.06 847 25.01 9.1 48.4 48 -1.2 29.9 9.31 0.367
13:17 1018 30.06 847 25.01 9.1 48.4 48 -1.2 29.9 9.32 0.367
13:18 1018 30.06 847 25.01 9.1 48.3 48 -1.4 29.4 9.27 0.365
13:19 1018 30.06 847 25.01 9 48.1 47 -1.6 29 9.14 0.36
13:20 1018 30.06 847 25.01 9 48.1 50 -0.8 30.5 9.1 0.358
13:21 1018 30.06 847 25.01 9.1 48.3 47 -1.7 29 9.25 0.364
13:22 1018 30.06 847 25.01 9 48.2 50 -0.8 30.5 9.24 0.364
13:23 1018 30.06 847 25.01 9.1 48.3 48 -1.2 29.8 9.26 0.365
13:24 1018 30.06 847 25.01 9.1 48.3 51 -0.6 30.9 9.19 0.362
13:25 1018 30.06 847 25.01 9 48.1 49 -1 30.1 9.19 0.362
13:26 1018 30.06 847 25.01 8.8 47.8 52 -0.5 31.1 9.07 0.357
13:27 1018 30.06 847 25.01 8.7 47.7 52 -0.6 31 9.11 0.359
13:28 1018 30.06 847 25.01 8.9 47.9 50 -1.1 30.1 9.18 0.361
13:29 1018 30.06 847 25.01 8.9 48 49 -1.3 29.7 9.16 0.361
13:30 1018 30.06 847 25.01 8.8 47.8 48 -1.5 29.3 9.02 0.355
13:31 1018 30.06 847 25.01 8.7 47.6 49 -1.4 29.5 8.88 0.35
13:32 1018 30.06 847 25.01 8.6 47.5 53 -0.5 31.2 8.9 0.35
13:33 1018 30.06 847 25.01 8.7 47.6 49 -1.4 29.5 8.97 0.353
13:34 1018 30.06 847 25.01 8.7 47.6 51 -0.8 30.6 8.94 0.352
13:35 1018 30.06 847 25.01 8.6 47.5 50 -1.1 29.9 8.92 0.351
13:36 1018 30.06 847 25.01 8.5 47.3 51 -1.2 29.9 8.81 0.347
13:37 1018 30.06 847 25.01 8.4 47.1 53 -0.6 30.9 8.77 0.345
13:38 1018 30.06 847 25.01 8.4 47.1 53 -0.7 30.8 8.74 0.344
13:39 1018 30.06 847 25.01 8.4 47.1 51 -1.2 29.8 8.72 0.343
13:40 1018 30.06 847 25.01 8.3 46.9 52 -0.9 30.4 8.59 0.338
13:41 1018 30.06 847 25.01 8.2 46.8 54 -0.5 31.1 8.49 0.334
13:42 1018 30.06 847 25.01 8.1 46.7 52 -1 30.2 8.48 0.334
13:43 1018 30.06 847 25.01 8 46.5 51 -1.3 29.6 8.41 0.331
13:44 1018 30.06 847 25.01 8 46.4 53 -1 30.1 8.3 0.327
13:45 1018 30.06 847 25.01 7.9 46.2 52 -1.4 29.6 8.3 0.327
13:46 1018 30.06 847 25.01 7.9 46.1 53 -1.1 30 8.24 0.324
13:47 1018 30.06 847 25.01 7.9 46.1 52 -1.4 29.5 8.2 0.323
13:48 1018 30.06 847 25.01 7.8 46 53 -1.1 30.1 8.14 0.32
13:49 1018 30.06 847 25.01 7.8 46 53 -1.3 29.6 8.13 0.32
13:50 1018 30.06 847 25.01 7.7 45.9 52 -1.4 29.4 8.12 0.32
13:51 1018 30.06 847 25.01 7.8 46 54 -1 30.2 8.15 0.321
13:52 1018 30.06 847 25.01 7.9 46.1 53 -1.1 30 8.21 0.323
13:53 1018 30.06 847 25.01 7.9 46.2 53 -1.2 29.9 8.23 0.324
13:54 1017 30.03 847 25.01 8 46.3 54 -0.7 30.8 8.24 0.324
13:55 1017 30.03 847 25.01 7.9 46.3 55 -0.5 31 8.29 0.326
13:56 1017 30.03 847 25.01 8 46.3 52 -1.2 29.8 8.34 0.328
13:57 1017 30.03 847 25.01 8 46.3 54 -0.7 30.7 8.31 0.327
13:58 1017 30.03 847 25.01 8 46.3 55 -0.6 31 8.31 0.327
13:59 1017 30.03 846 24.98 8 46.4 54 -0.6 30.9 8.37 0.33
14:00 1017 30.03 846 24.98 8.1 46.5 58 0.4 32.7 8.43 0.332
14:01 1017 30.03 846 24.98 8.2 46.7 54 -0.6 30.9 8.56 0.337
14:02 1017 30.03 846 24.98 8.2 46.8 54 -0.5 31.1 8.59 0.338
14:03 1017 30.03 846 24.98 8.2 46.8 52 -1 30.1 8.52 0.335
14:04 1017 30.03 846 24.98 8.2 46.7 54 -0.5 31 8.48 0.334
14:05 1017 30.03 846 24.98 8.2 46.7 52 -1 30.2 8.51 0.335
14:06 1017 30.03 846 24.98 8.2 46.7 54 -0.6 30.9 8.56 0.337
14:07 1017 30.03 846 24.98 8.2 46.8 55 -0.2 31.6 8.63 0.34
14:08 1017 30.03 846 24.98 8.3 46.9 55 -0.3 31.5 8.71 0.343
14:09 1017 30.03 846 24.98 8.4 47 52 -0.8 30.6 8.78 0.346
14:10 1017 30.03 846 24.98 8.4 47.1 53 -0.7 30.8 8.78 0.346
14:11 1017 30.03 846 24.98 8.4 47.1 52 -0.8 30.6 8.76 0.345
14:12 1017 30.03 846 24.98 8.4 47.1 52 -0.7 30.7 8.73 0.344
14:13 1017 30.03 846 24.98 8.4 47.1 56 0.1 32.2 8.77 0.345
14:14 1017 30.03 846 24.98 8.4 47.2 51 -1 30.3 8.79 0.346
14:15 1017 30.03 846 24.98 8.3 47 53 -0.7 30.7 8.73 0.344
14:16 1017 30.03 846 24.98 8.3 46.9 53 -0.8 30.6 8.72 0.343
14:17 1017 30.03 846 24.98 8.3 46.9 55 -0.2 31.7 8.66 0.341
14:18 1017 30.03 846 24.98 8.3 46.9 53 -0.8 30.6 8.64 0.34
14:19 1017 30.03 846 24.98 8.2 46.8 53 -0.8 30.5 8.58 0.338
14:20 1017 30.03 846 24.98 8.1 46.6 53 -0.9 30.3 8.54 0.336
14:21 1017 30.03 846 24.98 8.2 46.7 52 -1.1 30 8.5 0.335
14:22 1017 30.03 846 24.98 8.2 46.8 53 -0.9 30.4 8.47 0.333
14:23 1017 30.03 846 24.98 8.2 46.8 54 -0.6 30.9 8.46 0.333
14:24 1017 30.03 846 24.98 8.3 46.9 52 -0.9 30.3 8.56 0.337
14:25 1017 30.03 846 24.98 8.4 47.1 51 -1.1 30.1 8.65 0.341
14:26 1017 30.03 846 24.98 8.5 47.3 52 -0.9 30.4 8.72 0.343
14:27 1016 30 846 24.98 8.6 47.4 53 -0.5 31 8.78 0.346
14:28 1016 30 846 24.98 8.6 47.5 53 -0.5 31.2 8.85 0.348
14:29 1016 30 846 24.98 8.7 47.6 53 -0.3 31.5 8.9 0.35
14:30 1016 30 846 24.98 8.7 47.6 53 -0.4 31.3 8.89 0.35
14:31 1016 30 846 24.98 8.7 47.6 52 -0.7 30.8 8.9 0.35
14:32 1016 30 846 24.98 8.6 47.5 54 -0.1 31.9 8.87 0.349
14:33 1016 30 846 24.98 8.6 47.4 54 -0.3 31.5 8.9 0.35
14:34 1016 30 846 24.98 8.6 47.5 54 -0.2 31.7 8.9 0.35
14:35 1016 30 845 24.95 8.7 47.6 56 0.4 32.6 8.96 0.353
14:36 1016 30 845 24.95 8.8 47.8 50 -0.9 30.4 9.09 0.358
14:37 1016 30 845 24.95 8.8 47.9 49 -1.1 29.9 9.07 0.357
14:38 1016 30 845 24.95 8.7 47.6 52 -0.7 30.8 8.91 0.351
14:39 1016 30 845 24.95 8.6 47.5 52 -0.6 30.9 8.86 0.349
14:40 1016 30 845 24.95 8.6 47.4 53 -0.4 31.3 8.87 0.349
14:41 1016 30 845 24.95 8.6 47.5 53 -0.5 31.1 8.89 0.35
14:42 1016 30 845 24.95 8.6 47.4 51 -0.9 30.3 8.85 0.348
14:43 1016 30 845 24.95 8.6 47.4 53 -0.5 31.1 8.8 0.346
14:44 1016 30 845 24.95 8.5 47.4 53 -0.5 31.2 8.82 0.347
14:45 1016 30 845 24.95 8.6 47.5 54 -0.3 31.5 8.85 0.348
14:46 1016 30 845 24.95 8.6 47.4 51 -1 30.2 8.82 0.347
14:47 1016 30 845 24.95 8.6 47.4 52 -0.6 30.9 8.74 0.344
14:48 1016 30 845 24.95 8.4 47.2 51 -1 30.1 8.76 0.345
14:49 1016 30 845 24.95 8.4 47.2 52 -0.7 30.7 8.71 0.343
14:50 1016 30 845 24.95 8.4 47.1 55 -0.2 31.7 8.75 0.344
14:51 1016 30 845 24.95 8.4 47.2 52 -0.7 30.7 8.78 0.346
14:52 1016 30 845 24.95 8.5 47.2 53 -0.5 31.1 8.78 0.346
14:53 1016 30 845 24.95 8.5 47.3 52 -0.9 30.4 8.79 0.346
14:54 1016 30 845 24.95 8.5 47.3 52 -0.6 30.9 8.77 0.345
14:55 1016 30 845 24.95 8.5 47.3 53 -0.4 31.3 8.78 0.346
14:56 1016 30 845 24.95 8.5 47.2 54 -0.4 31.3 8.77 0.345
14:57 1016 30 845 24.95 8.4 47.1 53 -0.7 30.7 8.71 0.343
14:58 1016 30 845 24.95 8.3 46.9 52 -0.8 30.5 8.64 0.34
14:59 1016 30 845 24.95 8.2 46.8 55 -0.3 31.4 8.64 0.34
15:00 1016 30 845 24.95 8.2 46.8 55 -0.4 31.3 8.59 0.338
15:01 1016 30 845 24.95 8.2 46.7 55 -0.4 31.2 8.54 0.336
15:02 1016 30 845 24.95 8.1 46.7 54 -0.7 30.8 8.52 0.335
15:03 1016 30 845 24.95 8.1 46.5 55 -0.4 31.2 8.47 0.333
15:04 1016 30 845 24.95 8 46.5 53 -0.9 30.5 8.42 0.331
15:05 1016 30 845 24.95 8 46.4 54 -0.6 30.9 8.37 0.33
15:06 1016 30 845 24.95 8 46.3 54 -0.7 30.7 8.39 0.33
15:07 1016 30 845 24.95 8 46.3 54 -0.7 30.8 8.34 0.328
15:08 1016 30 845 24.95 7.9 46.2 55 -0.5 31.1 8.32 0.328
15:09 1016 30 845 24.95 7.9 46.2 56 -0.4 31.3 8.32 0.328
15:10 1016 30 845 24.95 7.9 46.2 55 -0.6 31 8.3 0.327
15:11 1016 30 845 24.95 7.9 46.2 56 -0.2 31.6 8.29 0.326
15:12 1016 30 845 24.95 7.9 46.2 56 -0.3 31.4 8.29 0.326
15:13 1016 30 845 24.95 7.9 46.2 56 -0.3 31.4 8.28 0.326
15:14 1016 30 845 24.95 7.9 46.2 56 -0.3 31.5 8.24 0.324
15:15 1016 30 845 24.95 7.8 46.1 56 -0.3 31.5 8.24 0.324
15:16 1016 30 845 24.95 7.8 46.1 57 -0.2 31.7 8.24 0.324
15:17 1016 30 845 24.95 7.8 46.1 58 0.1 32.2 8.22 0.324
15:18 1016 30 845 24.95 7.8 46.1 58 0.1 32.1 8.25 0.325
15:19 1016 30 845 24.95 7.9 46.2 57 -0.2 31.7 8.25 0.325
15:20 1016 30 845 24.95 7.9 46.1 58 0.2 32.4 8.27 0.326
15:21 1016 30 845 24.95 7.9 46.1 58 0.2 32.3 8.28 0.326
15:22 1016 30 845 24.95 7.9 46.1 57 -0.1 31.7 8.27 0.326
15:23 1016 30 845 24.95 7.9 46.1 56 -0.3 31.5 8.27 0.326
15:24 1016 30 845 24.95 7.8 46 56 -0.5 31.2 8.19 0.322
15:25 1016 30 845 24.95 7.8 46 57 -0.1 31.7 8.21 0.323
15:26 1016 30 845 24.95 7.8 46 57 -0.2 31.6 8.18 0.322
15:27 1016 30 845 24.95 7.7 45.9 57 -0.1 31.8 8.16 0.321
15:28 1016 30 845 24.95 7.8 46 57 -0.2 31.6 8.17 0.322
15:29 1016 30 845 24.95 7.7 45.9 56 -0.4 31.4 8.16 0.321
15:30 1016 30 845 24.95 7.7 45.9 58 -0.1 31.9 8.15 0.321
15:31 1016 30 845 24.95 7.7 45.9 58 0.1 32.1 8.14 0.32
15:32 1016 30 845 24.95 7.7 45.9 57 -0.2 31.7 8.13 0.32
15:33 1016 30 845 24.95 7.7 45.9 56 -0.4 31.2 8.1 0.319
15:34 1016 30 845 24.95 7.7 45.9 57 -0.1 31.8 8.11 0.319
15:35 1016 30 845 24.95 7.7 45.9 58 -0.1 31.9 8.13 0.32
15:36 1016 30 845 24.95 7.7 45.9 59 0.2 32.4 8.14 0.32
15:37 1016 30 845 24.95 7.8 46 58 0 32.1 8.13 0.32
15:38 1016 30 845 24.95 7.8 46 57 -0.3 31.5 8.18 0.322
15:39 1016 30 845 24.95 7.8 46 59 0.2 32.4 8.17 0.322
15:40 1016 30 845 24.95 7.8 46 58 0.1 32.1 8.15 0.321
15:41 1016 30 845 24.95 7.8 46.1 56 -0.3 31.5 8.15 0.321
15:42 1016 30 845 24.95 7.8 46 57 -0.2 31.6 8.14 0.32
15:43 1016 30 845 24.95 7.8 46 57 -0.3 31.4 8.12 0.32
15:44 1016 30 845 24.95 7.8 46 57 -0.3 31.5 8.12 0.32
15:45 1016 30 845 24.95 7.8 46 57 -0.2 31.6 8.12 0.32
15:46 1016 30 845 24.95 7.8 46 57 -0.3 31.4 8.15 0.321
15:47 1016 30 845 24.95 7.8 46 58 0 32.1 8.12 0.32
15:48 1016 30 845 24.95 7.8 46 57 -0.2 31.6 8.15 0.321
15:49 1016 30 845 24.95 7.8 46 56 -0.4 31.2 8.16 0.321
15:50 1016 30 845 24.95 7.8 46 56 -0.4 31.2 8.15 0.321
15:51 1016 30 845 24.95 7.8 46 54 -0.9 30.4 8.13 0.32
15:52 1016 30 845 24.95 7.7 45.9 57 -0.3 31.4 8.13 0.32
15:53 1016 30 845 24.95 7.8 46 56 -0.3 31.4 8.17 0.322
15:54 1016 30 845 24.95 7.7 45.9 55 -0.8 30.6 8.14 0.32
15:55 1016 30 845 24.95 7.7 45.9 56 -0.5 31.1 8.15 0.321
15:56 1016 30 845 24.95 7.7 45.9 58 0.1 32.2 8.12 0.32
15:57 1016 30 845 24.95 7.7 45.8 59 0.2 32.4 8.12 0.32
15:58 1016 30 845 24.95 7.7 45.8 58 -0.1 31.8 8.13 0.32
15:59 1016 30 845 24.95 7.7 45.8 58 -0.1 31.8 8.12 0.32
16:00 1016 30 845 24.95 7.7 45.8 57 -0.2 31.6 8.08 0.318
16:01 1016 30 845 24.95 7.6 45.7 59 0.1 32.2 8.04 0.317
16:02 1016 30 845 24.95 7.7 45.8 60 0.4 32.7 8.06 0.317
16:03 1016 30 845 24.95 7.6 45.8 58 -0 31.9 8.04 0.317
16:04 1016 30 845 24.95 7.6 45.7 59 0.2 32.3 8.04 0.317
16:05 1016 30 845 24.95 7.6 45.7 58 -0.1 31.8 8.02 0.316
16:06 1016 30 845 24.95 7.7 45.8 59 0.1 32.3 8.02 0.316
16:07 1016 30 845 24.95 7.7 45.8 58 -0 31.9 8.03 0.316
16:08 1016 30 845 24.95 7.6 45.8 59 0.2 32.3 8.03 0.316
16:09 1016 30 845 24.95 7.6 45.7 59 0.2 32.3 8.02 0.316
16:10 1016 30 845 24.95 7.6 45.7 60 0.3 32.6 8.05 0.317
16:11 1016 30 845 24.95 7.6 45.7 61 0.6 33.2 8.04 0.317
16:12 1016 30 845 24.95 7.6 45.7 59 0.1 32.2 8.01 0.315
16:13 1016 30 845 24.95 7.6 45.7 61 0.6 33.1 8.03 0.316
16:14 1016 30 845 24.95 7.6 45.7 59 0.1 32.2 7.99 0.315
16:15 1016 30 845 24.95 7.6 45.6 58 -0.2 31.7 7.98 0.314
16:16 1016 30 845 24.95 7.6 45.6 56 -0.6 30.9 7.93 0.312
16:17 1016 30 845 24.95 7.6 45.6 58 -0.2 31.6 7.94 0.313
16:18 1016 30 845 24.95 7.6 45.6 58 -0.2 31.7 7.93 0.312
16:19 1016 30 845 24.95 7.5 45.6 57 -0.3 31.4 7.92 0.312
16:20 1016 30 845 24.95 7.5 45.6 58 -0.2 31.6 7.88 0.31
16:21 1016 30 845 24.95 7.5 45.5 57 -0.3 31.4 7.86 0.309
16:22 1016 30 845 24.95 7.5 45.5 58 -0.3 31.5 7.83 0.308
16:23 1016 30 845 24.95 7.5 45.4 58 -0.2 31.6 7.82 0.308
16:24 1016 30 845 24.95 7.4 45.4 59 -0.1 31.8 7.79 0.307
16:25 1016 30 845 24.95 7.4 45.3 59 -0.2 31.7 7.8 0.307
16:26 1016 30 845 24.95 7.4 45.4 58 -0.3 31.5 7.78 0.306
16:27 1016 30 845 24.95 7.4 45.3 58 -0.4 31.3 7.76 0.306
16:28 1016 30 845 24.95 7.4 45.3 58 -0.2 31.6 7.78 0.306
16:29 1016 30 845 24.95 7.4 45.3 60 0.1 32.1 7.78 0.306
16:30 1016 30 845 24.95 7.3 45.2 58 -0.4 31.2 7.76 0.306
16:31 1016 30 845 24.95 7.3 45.2 59 -0.1 31.9 7.74 0.305
16:32 1016 30 845 24.95 7.4 45.3 59 -0.2 31.7 7.73 0.304
16:33 1016 30 845 24.95 7.3 45.2 58 -0.4 31.3 7.7 0.303
16:34 1016 30 845 24.95 7.3 45.2 58 -0.3 31.4 7.67 0.302
16:35 1016 30 845 24.95 7.4 45.2 59 -0.1 31.7 7.7 0.303
16:36 1016 30 845 24.95 7.3 45.1 58 -0.3 31.4 7.68 0.302
16:37 1016 30 845 24.95 7.3 45.2 58 -0.3 31.5 7.67 0.302
16:38 1016 30 845 24.95 7.3 45.1 59 -0.3 31.5 7.67 0.302
16:39 1016 30 845 24.95 7.3 45.1 59 -0.2 31.6 7.67 0.302
16:40 1016 30 845 24.95 7.3 45.1 59 -0.1 31.7 7.64 0.301
16:41 1016 30 845 24.95 7.3 45.1 57 -0.7 30.8 7.65 0.301
16:42 1016 30 845 24.95 7.2 45 57 -0.7 30.8 7.64 0.301
16:43 1015 29.97 845 24.95 7.3 45.1 57 -0.6 30.8 7.63 0.3
16:44 1015 29.97 845 24.95 7.3 45.1 59 -0.3 31.5 7.68 0.302
16:45 1015 29.97 845 24.95 7.3 45.1 59 -0.1 31.9 7.68 0.302
16:46 1015 29.97 845 24.95 7.3 45.1 58 -0.3 31.4 7.68 0.302
16:47 1015 29.97 845 24.95 7.3 45.1 59 -0.3 31.5 7.65 0.301
16:48 1015 29.97 845 24.95 7.3 45.1 59 -0.1 31.8 7.67 0.302
16:49 1015 29.97 845 24.95 7.3 45.1 61 0.3 32.6 7.63 0.3
16:50 1015 29.97 845 24.95 7.2 45 63 0.6 33.1 7.64 0.301
16:51 1015 29.97 845 24.95 7.2 45 60 -0.1 31.8 7.65 0.301
16:52 1015 29.97 845 24.95 7.2 45 59 -0.2 31.7 7.62 0.3
16:53 1015 29.97 845 24.95 7.2 45 59 -0.1 31.8 7.67 0.302
16:54 1015 29.97 845 24.95 7.2 45 58 -0.4 31.3 7.65 0.301
16:55 1015 29.97 845 24.95 7.2 45 59 -0.1 31.8 7.64 0.301
16:56 1015 29.97 844 24.92 7.2 45 62 0.4 32.8 7.67 0.302
16:57 1015 29.97 844 24.92 7.2 45 63 0.7 33.3 7.66 0.302
16:58 1015 29.97 844 24.92 7.2 44.9 62 0.4 32.6 7.68 0.302
16:59 1015 29.97 844 24.92 7.2 45 62 0.5 32.9 7.61 0.3
17:00 1015 29.97 844 24.92 7.2 44.9 62 0.4 32.8 7.59 0.299
17:01 1015 29.97 844 24.92 7.2 44.9 64 0.8 33.4 7.59 0.299
17:02 1015 29.97 845 24.95 7.1 44.8 65 0.9 33.7 7.57 0.298
17:03 1015 29.97 844 24.92 7.1 44.7 65 0.9 33.6 7.55 0.297
17:04 1015 29.97 844 24.92 7 44.7 67 1.3 34.3 7.49 0.295
17:05 1015 29.97 844 24.92 7 44.5 68 1.5 34.7 7.46 0.294
17:06 1015 29.97 845 24.95 6.9 44.4 68 1.4 34.4 7.4 0.291
17:07 1015 29.97 845 24.95 6.8 44.3 67 1.1 34 7.33 0.289
17:08 1015 29.97 844 24.92 6.8 44.2 65 0.7 33.2 7.26 0.286
17:09 1015 29.97 844 24.92 6.8 44.2 64 0.4 32.7 7.19 0.283
17:10 1015 29.97 844 24.92 6.8 44.3 64 0.4 32.7 7.21 0.284
17:11 1015 29.97 844 24.92 6.9 44.3 65 0.7 33.2 7.24 0.285
17:12 1015 29.97 844 24.92 6.9 44.3 65 0.8 33.5 7.25 0.285
17:13 1015 29.97 844 24.92 6.8 44.3 66 1 33.9 7.25 0.285
17:14 1015 29.97 844 24.92 6.8 44.2 67 1.2 34.1 7.23 0.285
17:15 1015 29.97 844 24.92 6.7 44.1 68 1.2 34.2 7.15 0.281
17:16 1015 29.97 844 24.92 6.7 44.1 67 1.1 33.9 7.13 0.281
17:17 1015 29.97 844 24.92 6.7 44 67 1.1 33.9 7.08 0.279
17:18 1015 29.97 844 24.92 6.7 44.1 69 1.4 34.6 7.13 0.281
17:19 1015 29.97 844 24.92 6.7 44 68 1.3 34.3 7.12 0.28
17:20 1015 29.97 844 24.92 6.7 44 66 0.8 33.5 7.1 0.28
17:21 1015 29.97 844 24.92 6.7 44 67 1 33.8 7.09 0.279
17:22 1015 29.97 844 24.92 6.7 44 69 1.5 34.7 7.06 0.278
17:23 1015 29.97 844 24.92 6.6 43.9 68 1.1 34 7.04 0.277
17:24 1015 29.97 844 24.92 6.6 43.9 67 0.9 33.7 7.03 0.277
17:25 1015 29.97 844 24.92 6.7 44 67 1.1 34 7.07 0.278
17:26 1015 29.97 844 24.92 6.7 44 67 1 33.9 7.05 0.278
17:27 1015 29.97 844 24.92 6.7 44 68 1.1 34 7.06 0.278
17:28 1015 29.97 844 24.92 6.7 44 67 1.1 33.9 7.05 0.278
17:29 1015 29.97 844 24.92 6.7 44.1 67 1 33.9 7.1 0.28
17:30 1015 29.97 844 24.92 6.7 44 68 1.1 34 7.08 0.279
17:31 1015 29.97 844 24.92 6.7 44.1 67 1.1 34 7.07 0.278
17:32 1015 29.97 844 24.92 6.7 44 68 1.2 34.2 7.1 0.28
17:33 1015 29.97 844 24.92 6.7 44 68 1.2 34.1 7.07 0.278
17:34 1015 29.97 844 24.92 6.6 43.9 67 1.1 33.9 7.05 0.278
17:35 1015 29.97 844 24.92 6.6 43.9 68 1.1 34 7.06 0.278
17:36 1015 29.97 844 24.92 6.6 43.9 67 1 33.8 7.04 0.277
17:37 1015 29.97 844 24.92 6.6 43.9 67 0.9 33.7 7.04 0.277
17:38 1015 29.97 844 24.92 6.7 44 67 0.9 33.7 7.04 0.277
17:39 1015 29.97 844 24.92 6.7 44 67 1 33.7 7.05 0.278
17:40 1015 29.97 844 24.92 6.7 44 69 1.4 34.4 7.05 0.278
17:41 1015 29.97 844 24.92 6.6 43.9 70 1.5 34.7 7.03 0.277
17:42 1015 29.97 844 24.92 6.6 43.8 69 1.4 34.5 6.985 0.275
17:43 1015 29.97 844 24.92 6.5 43.7 69 1.3 34.4 6.894 0.271
17:44 1015 29.97 844 24.92 6.5 43.7 69 1.1 34.1 6.866 0.27
17:45 1015 29.97 844 24.92 6.5 43.6 69 1.1 34 6.872 0.271
17:46 1015 29.97 844 24.92 6.4 43.6 69 1.1 34 6.861 0.27
17:47 1015 29.97 844 24.92 6.5 43.7 69 1.2 34.1 6.844 0.269
17:48 1015 29.97 844 24.92 6.4 43.6 68 1.1 34 6.844 0.269
17:49 1015 29.97 844 24.92 6.5 43.6 68 1 33.7 6.866 0.27
17:50 1015 29.97 844 24.92 6.5 43.7 68 1 33.9 6.872 0.271
17:51 1015 29.97 844 24.92 6.5 43.7 68 1 33.8 6.849 0.27
17:52 1015 29.97 844 24.92 6.5 43.6 68 0.9 33.7 6.867 0.27
17:53 1015 29.97 844 24.92 6.5 43.6 68 1 33.9 6.872 0.271
17:54 1015 29.97 844 24.92 6.5 43.7 69 1.1 34.1 6.855 0.27
17:55 1015 29.97 844 24.92 6.5 43.7 68 1.1 34 6.878 0.271
17:56 1015 29.97 844 24.92 6.5 43.6 69 1.1 34 6.838 0.269
17:57 1015 29.97 844 24.92 6.5 43.6 68 1.1 34 6.855 0.27
17:58 1015 29.97 844 24.92 6.4 43.6 69 1.1 34 6.838 0.269
17:59 1015 29.97 844 24.92 6.4 43.6 68 1 33.8 6.827 0.269
18:00 1015 29.97 844 24.92 6.4 43.5 67 0.8 33.5 6.799 0.268
18:01 1015 29.97 844 24.92 6.4 43.6 68 0.9 33.7 6.787 0.267
18:02 1015 29.97 844 24.92 6.4 43.6 68 1 33.8 6.793 0.267
18:03 1015 29.97 844 24.92 6.4 43.5 69 1.1 34.1 6.793 0.267
18:04 1015 29.97 844 24.92 6.4 43.5 70 1.3 34.4 6.821 0.269
18:05 1015 29.97 844 24.92 6.4 43.4 68 0.9 33.6 6.793 0.267
18:06 1015 29.97 844 24.92 6.4 43.5 71 1.6 34.9 6.765 0.266
18:07 1015 29.97 844 24.92 6.3 43.4 71 1.4 34.5 6.754 0.266
18:08 1015 29.97 844 24.92 6.3 43.4 71 1.4 34.6 6.691 0.263
18:09 1015 29.97 844 24.92 6.3 43.4 71 1.4 34.5 6.674 0.263
18:10 1015 29.97 844 24.92 6.2 43.2 72 1.6 34.9 6.646 0.262
18:11 1015 29.97 844 24.92 6.2 43.2 72 1.6 34.8 6.641 0.261
18:12 1015 29.97 844 24.92 6.2 43.1 72 1.5 34.7 6.59 0.259
18:13 1015 29.97 844 24.92 6.2 43.1 73 1.7 35.1 6.584 0.259
18:14 1015 29.97 844 24.92 6.1 43 74 1.8 35.2 6.561 0.258
18:15 1015 29.97 844 24.92 6.1 43 73 1.7 35 6.522 0.257
18:16 1015 29.97 844 24.92 6 42.9 73 1.5 34.7 6.488 0.255
18:17 1015 29.97 844 24.92 6.1 42.9 73 1.6 34.8 6.494 0.256
18:18 1015 29.97 844 24.92 6 42.9 71 1.2 34.1 6.511 0.256
18:19 1015 29.97 844 24.92 6.1 43 70 1.1 34 6.46 0.254
18:20 1015 29.97 844 24.92 6.1 43 71 1.3 34.4 6.533 0.257
18:21 1015 29.97 844 24.92 6.1 43.1 72 1.5 34.7 6.556 0.258
18:22 1015 29.97 844 24.92 6.2 43.1 73 1.6 35 6.578 0.259
18:23 1015 29.97 844 24.92 6.1 43 71 1.2 34.1 6.527 0.257
18:24 1015 29.97 844 24.92 6.1 43 69 0.9 33.6 6.527 0.257
18:25 1015 29.97 844 24.92 6.1 43 68 0.7 33.2 6.556 0.258
18:26 1015 29.97 844 24.92 6.2 43.2 69 0.9 33.6 6.629 0.261
18:27 1015 29.97 844 24.92 6.3 43.4 69 1.1 34 6.737 0.265
18:28 1015 29.97 844 24.92 6.7 44 67 1 33.8 6.997 0.275
18:29 1015 29.97 844 24.92 7 44.5 66 1.1 34 7.29 0.287
18:30 1015 29.97 844 24.92 7.1 44.9 68 1.6 34.8 7.48 0.294
18:31 1015 29.97 844 24.92 7.2 45 67 1.4 34.6 7.61 0.3
18:32 1015 29.97 844 24.92 7.3 45.1 66 1.4 34.4 7.68 0.302
18:33 1015 29.97 844 24.92 7.4 45.2 65 1.2 34.2 7.75 0.305
18:34 1015 29.97 844 24.92 7.5 45.5 65 1.4 34.4 7.84 0.309
18:35 1015 29.97 844 24.92 7.6 45.7 66 1.7 35.1 7.95 0.313
18:36 1015 29.97 844 24.92 7.7 45.9 66 1.7 35.1 8.05 0.317
18:37 1015 29.97 844 24.92 7.8 46 66 1.8 35.3 8.13 0.32
18:38 1014 29.94 844 24.92 8 46.4 64 1.6 34.8 8.29 0.326
18:39 1014 29.94 844 24.92 8.3 47 60 1 33.9 8.6 0.339
18:40 1014 29.94 844 24.92 8.6 47.5 58 1 33.7 8.93 0.352
18:41 1014 29.94 844 24.92 8.9 48 59 1.4 34.5 9.23 0.363
18:42 1014 29.94 844 24.92 8.9 48.1 62 2.1 35.7 9.32 0.367
18:43 1014 29.94 843 24.89 8.8 47.9 62 1.9 35.4 9.2 0.362
18:44 1014 29.94 843 24.89 8.7 47.7 61 1.8 35.2 9.14 0.36
18:45 1014 29.94 843 24.89 8.8 47.8 62 1.9 35.5 9.15 0.36
18:46 1014 29.94 843 24.89 8.7 47.6 64 2.2 36 9.09 0.358
18:47 1014 29.94 843 24.89 8.6 47.4 62 1.8 35.3 9.03 0.356
18:48 1014 29.94 843 24.89 8.6 47.4 64 2.1 35.8 9 0.354
18:49 1014 29.94 843 24.89 8.6 47.4 64 2.2 35.9 8.96 0.353
18:50 1014 29.94 843 24.89 8.5 47.3 64 2.2 35.9 8.93 0.352
18:51 1014 29.94 843 24.89 8.4 47.1 66 2.4 36.4 8.86 0.349
18:52 1014 29.94 843 24.89 8.4 47.1 66 2.5 36.5 8.77 0.345
18:53 1014 29.94 843 24.89 8.3 47 67 2.6 36.7 8.72 0.343
18:54 1014 29.94 843 24.89 8.3 46.9 67 2.6 36.6 8.64 0.34
18:55 1014 29.94 843 24.89 8.2 46.8 66 2.3 36.2 8.62 0.339
18:56 1014 29.94 843 24.89 8.3 46.9 68 2.7 36.8 8.63 0.34
18:57 1014 29.94 843 24.89 8.3 46.9 68 2.7 36.9 8.62 0.339
18:58 1014 29.94 843 24.89 8.3 46.9 68 2.7 36.8 8.61 0.339
18:59 1014 29.94 843 24.89 8.2 46.8 68 2.6 36.8 8.6 0.339
19:00 1014 29.94 843 24.89 8.1 46.6 69 2.9 37.1 8.55 0.337
19:01 1014 29.94 843 24.89 8.1 46.6 69 2.7 36.9 8.44 0.332
19:02 1014 29.94 843 24.89 8.1 46.6 70 3 37.4 8.46 0.333
19:03 1014 29.94 843 24.89 8 46.5 70 2.9 37.2 8.44 0.332
19:04 1014 29.94 844 24.92 8 46.4 73 3.4 38.1 8.41 0.331
19:05 1014 29.94 844 24.92 7.9 46.1 71 2.8 37.1 8.28 0.326
19:06 1014 29.94 844 24.92 7.9 46.3 72 3.2 37.7 8.34 0.328
19:07 1014 29.94 844 24.92 8 46.3 72 3.3 37.9 8.36 0.329
19:08 1014 29.94 844 24.92 8 46.4 71 3.1 37.6 8.36 0.329
19:09 1014 29.94 844 24.92 8.1 46.5 70 3 37.4 8.42 0.331
19:10 1014 29.94 844 24.92 8 46.5 73 3.6 38.5 8.43 0.332
19:11 1015 29.97 844 24.92 7.9 46.2 72 3.3 37.9 8.31 0.327
19:12 1015 29.97 844 24.92 7.9 46.2 74 3.6 38.5 8.28 0.326
19:13 1015 29.97 844 24.92 7.9 46.1 73 3.2 37.8 8.24 0.324
19:14 1015 29.97 844 24.92 7.8 46.1 74 3.5 38.2 8.24 0.324
19:15 1015 29.97 844 24.92 7.8 46.1 74 3.5 38.4 8.25 0.325
19:16 1015 29.97 844 24.92 7.8 46 74 3.5 38.3 8.17 0.322
19:17 1015 29.97 844 24.92 7.7 45.9 74 3.4 38.1 8.2 0.323
19:18 1015 29.97 844 24.92 7.7 45.9 75 3.6 38.5 8.15 0.321
19:19 1015 29.97 844 24.92 7.6 45.8 77 3.8 38.9 8.06 0.317
19:20 1015 29.97 844 24.92 7.5 45.5 77 3.8 38.8 7.96 0.313
19:21 1015 29.97 844 24.92 7.4 45.4 77 3.8 38.8 7.85 0.309
19:22 1015 29.97 844 24.92 7.4 45.3 77 3.7 38.7 7.82 0.308
19:23 1015 29.97 844 24.92 7.4 45.2 77 3.6 38.4 7.73 0.304
19:24 1015 29.97 844 24.92 7.4 45.2 77 3.6 38.4 7.74 0.305
19:25 1015 29.97 844 24.92 7.3 45.2 77 3.5 38.3 7.76 0.306
19:26 1015 29.97 844 24.92 7.3 45.2 78 3.7 38.6 7.69 0.303
19:27 1015 29.97 844 24.92 7.3 45.1 77 3.5 38.2 7.69 0.303
19:28 1015 29.97 844 24.92 7.3 45.2 78 3.8 38.8 7.72 0.304
19:29 1015 29.97 844 24.92 7.3 45.1 76 3.4 38.1 7.69 0.303
19:30 1015 29.97 844 24.92 7.3 45.1 79 3.8 38.9 7.7 0.303
19:31 1015 29.97 844 24.92 7.2 44.9 80 3.9 39.1 7.63 0.3
19:32 1015 29.97 844 24.92 7.1 44.8 79 3.8 38.8 7.54 0.297
19:33 1015 29.97 844 24.92 7.1 44.8 79 3.7 38.6 7.53 0.296
19:34 1015 29.97 844 24.92 7.1 44.8 80 3.9 39 7.54 0.297
19:35 1015 29.97 844 24.92 7 44.7 80 3.8 38.8 7.47 0.294
19:36 1015 29.97 844 24.92 7 44.6 79 3.7 38.7 7.47 0.294
19:37 1015 29.97 844 24.92 7 44.6 80 3.8 38.9 7.47 0.294
19:38 1015 29.97 844 24.92 7 44.6 80 3.8 38.8 7.43 0.293
19:39 1015 29.97 844 24.92 7 44.7 79 3.7 38.6 7.44 0.293
19:40 1015 29.97 844 24.92 7.1 44.7 79 3.7 38.7 7.52 0.296
19:41 1015 29.97 844 24.92 7 44.6 81 3.9 39 7.42 0.292
19:42 1015 29.97 844 24.92 7 44.5 81 3.9 39 7.38 0.291
19:43 1015 29.97 844 24.92 6.9 44.4 79 3.6 38.4 7.32 0.288
19:44 1015 29.97 844 24.92 7 44.5 80 3.8 38.9 7.34 0.289
19:45 1015 29.97 844 24.92 6.9 44.4 80 3.6 38.6 7.36 0.29
19:46 1015 29.97 844 24.92 6.9 44.4 80 3.8 38.8 7.35 0.289
19:47 1015 29.97 844 24.92 6.9 44.5 80 3.7 38.7 7.34 0.289
19:48 1015 29.97 844 24.92 7 44.5 80 3.7 38.7 7.33 0.289
19:49 1015 29.97 844 24.92 7 44.6 81 3.9 39 7.37 0.29
19:50 1015 29.97 844 24.92 6.9 44.5 81 3.8 38.9 7.32 0.288
19:51 1015 29.97 844 24.92 6.9 44.4 81 3.8 38.9 7.3 0.287
19:52 1015 29.97 844 24.92 6.9 44.3 80 3.6 38.6 7.25 0.285
19:53 1015 29.97 844 24.92 6.9 44.4 81 3.8 38.8 7.29 0.287
19:54 1015 29.97 844 24.92 6.8 44.3 80 3.6 38.5 7.26 0.286
19:55 1015 29.97 844 24.92 6.9 44.5 80 3.7 38.6 7.27 0.286
19:56 1015 29.97 844 24.92 7 44.5 79 3.6 38.5 7.35 0.289
19:57 1015 29.97 844 24.92 7 44.7 77 3.3 38 7.39 0.291
19:58 1015 29.97 844 24.92 7.2 44.9 78 3.6 38.4 7.48 0.294
19:59 1015 29.97 844 24.92 7.1 44.8 78 3.6 38.5 7.51 0.296
20:00 1015 29.97 844 24.92 7.1 44.8 79 3.6 38.6 7.48 0.294
20:01 1014 29.94 844 24.92 7.1 44.7 78 3.5 38.4 7.46 0.294
20:02 1014 29.94 844 24.92 7.1 44.7 78 3.6 38.5 7.44 0.293
20:03 1014 29.94 844 24.92 7.1 44.7 77 3.4 38.1 7.45 0.293
20:04 1014 29.94 844 24.92 7.1 44.8 79 3.7 38.7 7.47 0.294
20:05 1014 29.94 844 24.92 7 44.7 79 3.6 38.5 7.43 0.293
20:06 1014 29.94 844 24.92 7 44.6 79 3.7 38.6 7.38 0.291
20:07 1014 29.94 844 24.92 7 44.5 78 3.4 38.2 7.35 0.289
20:08 1014 29.94 843 24.89 7 44.5 78 3.5 38.2 7.33 0.289
20:09 1014 29.94 843 24.89 7 44.5 79 3.6 38.5 7.37 0.29
20:10 1014 29.94 843 24.89 7 44.5 80 3.7 38.6 7.35 0.289
20:11 1014 29.94 843 24.89 6.9 44.4 80 3.6 38.5 7.34 0.289
20:12 1014 29.94 843 24.89 6.8 44.3 79 3.5 38.3 7.27 0.286
20:13 1014 29.94 843 24.89 6.8 44.3 80 3.7 38.6 7.26 0.286
20:14 1014 29.94 843 24.89 6.8 44.2 81 3.7 38.6 7.23 0.285
20:15 1014 29.94 843 24.89 6.7 44.1 81 3.7 38.7 7.14 0.281
20:16 1014 29.94 843 24.89 6.7 44 81 3.6 38.5 7.09 0.279
20:17 1014 29.94 843 24.89 6.7 44 81 3.6 38.6 7.06 0.278
20:18 1014 29.94 843 24.89 6.7 44 79 3.3 38 7.06 0.278
20:19 1014 29.94 843 24.89 6.8 44.2 79 3.4 38.2 7.1 0.28
20:20 1014 29.94 843 24.89 6.8 44.3 80 3.6 38.5 7.21 0.284
20:21 1014 29.94 843 24.89 6.8 44.3 80 3.6 38.4 7.21 0.284
20:22 1014 29.94 843 24.89 6.8 44.3 78 3.2 37.8 7.2 0.283
20:23 1014 29.94 843 24.89 6.9 44.5 77 3.1 37.6 7.27 0.286
20:24 1014 29.94 843 24.89 7.1 44.8 76 3.1 37.6 7.35 0.289
20:25 1014 29.94 843 24.89 7.2 44.9 77 3.3 38 7.44 0.293
20:26 1014 29.94 843 24.89 7.2 44.9 77 3.4 38.1 7.54 0.297
20:27 1014 29.94 843 24.89 7.1 44.8 77 3.4 38.1 7.48 0.294
20:28 1014 29.94 843 24.89 7.1 44.7 76 3.1 37.6 7.47 0.294
20:29 1014 29.94 843 24.89 7.1 44.8 76 3.1 37.6 7.46 0.294
20:30 1014 29.94 843 24.89 7.2 44.9 75 3.1 37.5 7.46 0.294
20:31 1014 29.94 843 24.89 7.2 45 75 3.1 37.6 7.55 0.297
20:32 1014 29.94 843 24.89 7.3 45.1 76 3.4 38 7.6 0.299
20:33 1014 29.94 843 24.89 7.2 45 77 3.4 38.1 7.58 0.298
20:34 1014 29.94 843 24.89 7.1 44.8 76 3.3 37.9 7.51 0.296
20:35 1014 29.94 843 24.89 7.2 44.9 75 3.1 37.6 7.5 0.295
20:36 1014 29.94 843 24.89 7.2 45 74 2.9 37.2 7.58 0.298
20:37 1014 29.94 843 24.89 7.3 45.2 75 3.1 37.7 7.65 0.301
20:38 1014 29.94 843 24.89 7.3 45.2 75 3.2 37.8 7.64 0.301
20:39 1014 29.94 843 24.89 7.3 45.1 75 3.2 37.7 7.64 0.301
20:40 1014 29.94 843 24.89 7.3 45.2 74 3.1 37.5 7.63 0.3
20:41 1014 29.94 843 24.89 7.3 45.2 75 3.3 37.9 7.66 0.302
20:42 1014 29.94 843 24.89 7.3 45.2 76 3.3 37.9 7.7 0.303
20:43 1014 29.94 843 24.89 7.3 45.1 75 3.2 37.7 7.66 0.302
20:44 1014 29.94 843 24.89 7.3 45.2 76 3.3 38 7.63 0.3
20:45 1014 29.94 843 24.89 7.3 45.1 76 3.3 37.9 7.66 0.302
20:46 1014 29.94 843 24.89 7.2 45 75 3.2 37.7 7.61 0.3
20:47 1014 29.94 843 24.89 7.3 45.1 76 3.3 37.9 7.65 0.301
20:48 1014 29.94 843 24.89 7.3 45.1 76 3.3 37.9 7.62 0.3
20:49 1014 29.94 843 24.89 7.3 45.1 76 3.2 37.8 7.63 0.3
20:50 1014 29.94 843 24.89 7.3 45.1 76 3.3 37.9 7.62 0.3
20:51 1014 29.94 843 24.89 7.3 45.1 76 3.3 37.9 7.63 0.3
20:52 1014 29.94 843 24.89 7.2 45 76 3.3 37.9 7.62 0.3
20:53 1014 29.94 843 24.89 7.2 45 77 3.5 38.3 7.59 0.299
20:54 1014 29.94 843 24.89 7.1 44.8 77 3.4 38.2 7.54 0.297
20:55 1014 29.94 843 24.89 7.1 44.7 78 3.5 38.3 7.49 0.295
20:56 1014 29.94 843 24.89 7 44.7 78 3.5 38.3 7.45 0.293
20:57 1014 29.94 843 24.89 6.9 44.5 79 3.5 38.4 7.37 0.29
20:58 1014 29.94 843 24.89 6.9 44.4 79 3.6 38.4 7.32 0.288
20:59 1014 29.94 843 24.89 6.8 44.3 81 3.8 38.8 7.22 0.284
21:00 1014 29.94 843 24.89 6.7 44.1 81 3.7 38.7 7.11 0.28
21:01 1014 29.94 843 24.89 6.6 43.9 81 3.5 38.3 7.02 0.276
21:02 1014 29.94 843 24.89 6.6 43.9 81 3.5 38.3 6.983 0.275
21:03 1014 29.94 843 24.89 6.6 43.9 80 3.4 38.1 6.989 0.275
21:04 1014 29.94 843 24.89 6.6 43.9 79 3.3 38 7.03 0.277
21:05 1014 29.94 843 24.89 6.7 44 79 3.3 38 7.1 0.28
21:06 1014 29.94 843 24.89 6.8 44.2 77 2.9 37.3 7.17 0.282
21:07 1014 29.94 843 24.89 6.9 44.4 76 2.9 37.2 7.3 0.287
21:08 1014 29.94 843 24.89 7 44.7 74 2.6 36.7 7.38 0.291
21:09 1014 29.94 843 24.89 7.2 45 73 2.8 37 7.55 0.297
21:10 1014 29.94 843 24.89 7.3 45.2 73 2.8 37.1 7.62 0.3
21:11 1014 29.94 843 24.89 7.4 45.4 72 2.8 37 7.75 0.305
21:12 1014 29.94 843 24.89 7.5 45.5 71 2.7 36.8 7.8 0.307
21:13 1014 29.94 843 24.89 7.6 45.6 70 2.5 36.5 7.88 0.31
21:14 1014 29.94 843 24.89 7.7 45.9 70 2.7 36.8 7.97 0.314
21:15 1014 29.94 843 24.89 7.8 46 71 2.8 37 8.05 0.317
21:16 1014 29.94 843 24.89 7.8 46 71 2.8 37 8.08 0.318
21:17 1014 29.94 843 24.89 7.8 46 71 2.9 37.2 8.08 0.318
21:18 1014 29.94 843 24.89 7.8 46 70 2.7 36.9 8.08 0.318
21:19 1014 29.94 843 24.89 7.7 45.9 70 2.7 36.9 8.05 0.317
21:20 1014 29.94 843 24.89 7.8 46 71 2.7 36.9 8.07 0.318
21:21 1014 29.94 843 24.89 7.7 45.9 72 2.9 37.3 8.06 0.317
21:22 1014 29.94 843 24.89 7.7 45.8 74 3.3 37.9 7.97 0.314
21:23 1014 29.94 843 24.89 7.5 45.4 75 3.3 37.9 7.87 0.31
21:24 1014 29.94 843 24.89 7.3 45.2 76 3.3 38 7.73 0.304
21:25 1014 29.94 843 24.89 7.2 45 76 3.3 38 7.61 0.3
21:26 1014 29.94 843 24.89 7.1 44.8 75 2.9 37.3 7.58 0.298
21:27 1014 29.94 843 24.89 7.2 44.9 74 2.8 37 7.52 0.296
21:28 1014 29.94 843 24.89 7.3 45.1 72 2.7 36.8 7.59 0.299
21:29 1014 29.94 843 24.89 7.4 45.3 73 2.8 37 7.71 0.304
21:30 1014 29.94 843 24.89 7.5 45.4 74 3.1 37.5 7.78 0.306
21:31 1014 29.94 843 24.89 7.5 45.4 71 2.5 36.6 7.8 0.307
21:32 1014 29.94 843 24.89 7.5 45.5 72 2.8 37.1 7.9 0.311
21:33 1014 29.94 843 24.89 7.6 45.7 72 3 37.4 7.98 0.314
21:34 1014 29.94 843 24.89 7.6 45.7 71 2.6 36.7 7.96 0.313
21:35 1014 29.94 843 24.89 7.6 45.7 70 2.6 36.6 8.03 0.316
21:36 1014 29.94 843 24.89 7.7 45.9 70 2.6 36.7 8.06 0.317
21:37 1014 29.94 843 24.89 7.8 46 69 2.5 36.5 8.14 0.32
21:38 1014 29.94 843 24.89 7.8 46.1 70 2.7 36.9 8.21 0.323
21:39 1014 29.94 843 24.89 7.8 46.1 69 2.4 36.4 8.25 0.325
21:40 1014 29.94 843 24.89 7.9 46.2 69 2.5 36.5 8.26 0.325
21:41 1014 29.94 843 24.89 7.9 46.3 69 2.6 36.6 8.35 0.329
21:42 1014 29.94 843 24.89 8 46.4 68 2.5 36.5 8.39 0.33
21:43 1014 29.94 843 24.89 8 46.5 68 2.5 36.5 8.38 0.33
21:44 1014 29.94 843 24.89 8.1 46.6 67 2.5 36.4 8.51 0.335
21:45 1014 29.94 843 24.89 8.2 46.7 67 2.4 36.4 8.54 0.336
21:46 1014 29.94 843 24.89 8.2 46.7 66 2.2 36 8.56 0.337
21:47 1014 29.94 843 24.89 8.3 46.9 65 2.2 35.9 8.59 0.338
21:48 1014 29.94 843 24.89 8.3 47 66 2.3 36.1 8.63 0.34
21:49 1014 29.94 843 24.89 8.4 47 65 2.2 35.9 8.66 0.341
21:50 1014 29.94 843 24.89 8.4 47.1 65 2.2 36 8.69 0.342
21:51 1014 29.94 843 24.89 8.4 47.2 65 2.3 36.2 8.77 0.345
21:52 1014 29.94 843 24.89 8.4 47.2 66 2.4 36.4 8.76 0.345
21:53 1014 29.94 843 24.89 8.4 47.2 64 2.1 35.7 8.75 0.344
21:54 1014 29.94 843 24.89 8.5 47.3 66 2.5 36.5 8.8 0.346
21:55 1014 29.94 843 24.89 8.5 47.2 67 2.8 37 8.84 0.348
21:56 1014 29.94 843 24.89 8.4 47.1 68 2.9 37.3 8.77 0.345
21:57 1014 29.94 843 24.89 8.2 46.8 66 2.2 36 8.64 0.34
21:58 1014 29.94 843 24.89 8.2 46.7 69 2.9 37.2 8.58 0.338
21:59 1014 29.94 843 24.89 8.2 46.7 69 2.9 37.2 8.55 0.337
22:00 1014 29.94 843 24.89 8 46.5 71 3.1 37.6 8.46 0.333
22:01 1014 29.94 843 24.89 7.9 46.2 72 3.1 37.6 8.35 0.329
22:02 1014 29.94 843 24.89 7.8 46 70 2.7 36.8 8.25 0.325
22:03 1014 29.94 843 24.89 7.8 46 70 2.6 36.8 8.18 0.322
22:04 1014 29.94 843 24.89 7.8 46 70 2.7 36.8 8.17 0.322
22:05 1014 29.94 843 24.89 7.9 46.1 70 2.8 37 8.22 0.324
22:06 1014 29.94 843 24.89 7.9 46.1 71 2.9 37.1 8.26 0.325
22:07 1014 29.94 843 24.89 7.8 46.1 70 2.8 37 8.24 0.324
22:08 1014 29.94 843 24.89 7.8 46.1 70 2.8 37 8.15 0.321
22:09 1014 29.94 843 24.89 7.8 46 72 3 37.3 8.18 0.322
22:10 1014 29.94 843 24.89 7.7 45.9 73 3.2 37.8 8.17 0.322
22:11 1014 29.94 843 24.89 7.7 45.8 75 3.5 38.2 8.05 0.317
22:12 1014 29.94 843 24.89 7.6 45.6 77 3.7 38.7 7.95 0.313
22:13 1014 29.94 843 24.89 7.4 45.4 78 3.8 38.8 7.78 0.306
22:14 1014 29.94 843 24.89 7.2 45 79 3.7 38.7 7.62 0.3
22:15 1014 29.94 843 24.89 7.1 44.8 79 3.7 38.7 7.51 0.296
22:16 1014 29.94 843 24.89 7 44.6 80 3.7 38.7 7.44 0.293
22:17 1014 29.94 843 24.89 6.9 44.4 79 3.6 38.4 7.35 0.289
22:18 1014 29.94 843 24.89 6.9 44.3 80 3.6 38.5 7.32 0.288
22:19 1014 29.94 843 24.89 6.9 44.3 80 3.6 38.6 7.25 0.285
22:20 1014 29.94 843 24.89 6.8 44.2 80 3.6 38.5 7.23 0.285
22:21 1014 29.94 843 24.89 6.8 44.2 80 3.6 38.6 7.23 0.285
22:22 1014 29.94 843 24.89 6.7 44.1 80 3.6 38.4 7.15 0.281
22:23 1014 29.94 843 24.89 6.7 44.1 80 3.5 38.3 7.15 0.281
22:24 1014 29.94 843 24.89 6.8 44.2 80 3.5 38.4 7.16 0.282
22:25 1014 29.94 843 24.89 6.7 44.1 79 3.4 38.2 7.17 0.282
22:26 1014 29.94 843 24.89 6.8 44.2 80 3.5 38.3 7.16 0.282
22:27 1014 29.94 843 24.89 6.8 44.2 79 3.4 38.1 7.16 0.282
22:28 1014 29.94 843 24.89 6.7 44.1 79 3.3 38 7.18 0.283
22:29 1014 29.94 843 24.89 6.8 44.2 79 3.4 38.2 7.25 0.285
22:30 1014 29.94 843 24.89 6.8 44.3 80 3.6 38.4 7.26 0.286
22:31 1013 29.91 843 24.89 6.8 44.2 80 3.5 38.3 7.23 0.285
22:32 1013 29.91 843 24.89 6.7 44.1 79 3.3 38 7.17 0.282
22:33 1013 29.91 843 24.89 6.7 44.1 79 3.4 38.1 7.17 0.282
22:34 1013 29.91 843 24.89 6.8 44.2 79 3.3 38 7.21 0.284
22:35 1013 29.91 843 24.89 6.8 44.2 78 3.2 37.8 7.24 0.285
22:36 1013 29.91 843 24.89 6.9 44.3 78 3.3 38 7.29 0.287
22:37 1013 29.91 843 24.89 6.9 44.4 78 3.2 37.8 7.33 0.289
22:38 1013 29.91 843 24.89 6.9 44.5 78 3.4 38.1 7.34 0.289
22:39 1013 29.91 843 24.89 6.9 44.4 79 3.5 38.3 7.36 0.29
22:40 1013 29.91 843 24.89 6.9 44.4 79 3.6 38.4 7.33 0.289
22:41 1013 29.91 843 24.89 6.9 44.3 80 3.6 38.5 7.29 0.287
22:42 1013 29.91 843 24.89 6.8 44.2 81 3.7 38.7 7.17 0.282
22:43 1013 29.91 843 24.89 6.7 44 81 3.6 38.5 7.17 0.282
22:44 1013 29.91 843 24.89 6.7 44 80 3.5 38.3 7.12 0.28
22:45 1013 29.91 843 24.89 6.7 44.1 81 3.6 38.5 7.16 0.282
22:46 1013 29.91 843 24.89 6.7 44.1 81 3.6 38.5 7.13 0.281
22:47 1013 29.91 843 24.89 6.7 44 81 3.6 38.5 7.12 0.28
22:48 1013 29.91 843 24.89 6.6 43.9 79 3.2 37.8 7.1 0.28
22:49 1013 29.91 842 24.86 6.7 44 79 3.3 37.9 7.13 0.281
22:50 1013 29.91 842 24.86 6.8 44.3 79 3.4 38.1 7.23 0.285
22:51 1013 29.91 842 24.86 6.9 44.3 79 3.4 38.2 7.27 0.286
22:52 1013 29.91 842 24.86 6.9 44.4 79 3.5 38.2 7.27 0.286
22:53 1013 29.91 842 24.86 6.8 44.3 78 3.3 38 7.25 0.285
22:54 1013 29.91 842 24.86 6.9 44.4 79 3.4 38.2 7.29 0.287
22:55 1013 29.91 842 24.86 6.9 44.4 78 3.4 38.2 7.32 0.288
22:56 1013 29.91 842 24.86 6.9 44.4 78 3.3 38 7.31 0.288
22:57 1013 29.91 842 24.86 6.9 44.5 79 3.5 38.2 7.32 0.288
22:58 1013 29.91 842 24.86 6.9 44.4 79 3.5 38.2 7.31 0.288
22:59 1013 29.91 842 24.86 6.9 44.4 79 3.5 38.3 7.32 0.288
23:00 1013 29.91 842 24.86 6.8 44.3 79 3.4 38.2 7.27 0.286
23:01 1013 29.91 842 24.86 6.8 44.3 79 3.4 38.1 7.23 0.285
23:02 1013 29.91 842 24.86 6.8 44.3 79 3.4 38.2 7.25 0.285
23:03 1013 29.91 842 24.86 6.9 44.3 79 3.4 38.1 7.27 0.286
23:04 1013 29.91 842 24.86 6.8 44.3 79 3.5 38.3 7.21 0.284
23:05 1013 29.91 842 24.86 6.8 44.2 79 3.4 38.2 7.21 0.284
23:06 1013 29.91 842 24.86 6.8 44.2 79 3.4 38.2 7.18 0.283
23:07 1013 29.91 842 24.86 6.8 44.2 79 3.4 38.2 7.13 0.281
23:08 1013 29.91 842 24.86 6.7 44.1 80 3.5 38.2 7.13 0.281
23:09 1013 29.91 842 24.86 6.7 44.1 80 3.5 38.3 7.06 0.278
23:10 1013 29.91 842 24.86 6.6 43.9 80 3.4 38.1 7.04 0.277
23:11 1013 29.91 842 24.86 6.6 43.9 80 3.4 38.1 7.03 0.277
23:12 1013 29.91 842 24.86 6.6 43.9 80 3.4 38.1 7.02 0.276
23:13 1013 29.91 842 24.86 6.6 43.9 80 3.4 38.1 6.975 0.275
23:14 1013 29.91 842 24.86 6.6 43.8 81 3.6 38.5 6.959 0.274
23:15 1013 29.91 842 24.86 6.5 43.7 83 3.8 38.8 6.914 0.272
23:16 1013 29.91 842 24.86 6.3 43.3 84 3.8 38.9 6.801 0.268
23:17 1013 29.91 842 24.86 6.1 43 85 3.8 38.8 6.665 0.262
23:18 1013 29.91 842 24.86 6 42.8 85 3.7 38.6 6.541 0.258
23:19 1013 29.91 842 24.86 6 42.8 85 3.7 38.6 6.53 0.257
23:20 1013 29.91 842 24.86 6 42.8 85 3.7 38.6 6.507 0.256
23:21 1013 29.91 842 24.86 6 42.8 85 3.7 38.7 6.508 0.256
23:22 1013 29.91 842 24.86 5.9 42.6 86 3.7 38.7 6.4 0.252
23:23 1013 29.91 842 24.86 5.9 42.6 86 3.8 38.8 6.321 0.249
23:24 1013 29.91 842 24.86 5.8 42.4 87 3.8 38.8 6.248 0.246
23:25 1013 29.91 842 24.86 5.7 42.2 87 3.7 38.7 6.197 0.244
23:26 1013 29.91 842 24.86 5.7 42.3 87 3.7 38.6 6.225 0.245
23:27 1013 29.91 842 24.86 5.8 42.5 85 3.5 38.4 6.265 0.247
23:28 1013 29.91 842 24.86 6 42.7 84 3.4 38.1 6.361 0.25
23:29 1013 29.91 842 24.86 6.1 43 85 3.7 38.7 6.458 0.254
23:30 1013 29.91 842 24.86 6 42.8 86 3.8 38.8 6.39 0.252
23:31 1013 29.91 842 24.86 5.9 42.6 86 3.7 38.6 6.282 0.247
23:32 1013 29.91 842 24.86 5.9 42.6 86 3.7 38.6 6.294 0.248
23:33 1013 29.91 842 24.86 6 42.7 84 3.5 38.2 6.418 0.253
23:34 1013 29.91 842 24.86 6.1 43 84 3.6 38.5 6.526 0.257
23:35 1013 29.91 842 24.86 6.1 43 84 3.6 38.5 6.56 0.258
23:36 1013 29.91 842 24.86 6.2 43.1 82 3.4 38 6.599 0.26
23:37 1013 29.91 842 24.86 6.2 43.2 83 3.5 38.3 6.712 0.264
23:38 1013 29.91 842 24.86 6.3 43.4 82 3.5 38.3 6.718 0.264
23:39 1013 29.91 842 24.86 6.4 43.4 83 3.6 38.5 6.741 0.265
23:40 1013 29.91 842 24.86 6.3 43.3 83 3.6 38.5 6.69 0.263
23:41 1013 29.91 842 24.86 6.3 43.3 83 3.6 38.5 6.667 0.262
23:42 1013 29.91 842 24.86 6.2 43.2 83 3.5 38.3 6.645 0.262
23:43 1013 29.91 842 24.86 6.2 43.2 83 3.6 38.4 6.617 0.261
23:44 1013 29.91 842 24.86 6.2 43.2 83 3.6 38.4 6.611 0.26
23:45 1013 29.91 842 24.86 6.2 43.2 83 3.6 38.5 6.594 0.26
23:46 1013 29.91 842 24.86 6.2 43.2 83 3.5 38.4 6.56 0.258
23:47 1013 29.91 842 24.86 6.2 43.1 83 3.5 38.2 6.549 0.258
23:48 1013 29.91 842 24.86 6.2 43.2 82 3.3 37.9 6.583 0.259
23:49 1013 29.91 842 24.86 6.2 43.2 81 3.3 37.9 6.639 0.261
23:50 1013 29.91 842 24.86 6.3 43.4 81 3.3 38 6.69 0.263
23:51 1013 29.91 842 24.86 6.4 43.5 82 3.5 38.3 6.73 0.265
23:52 1013 29.91 842 24.86 6.3 43.4 83 3.6 38.4 6.702 0.264
23:53 1013 29.91 842 24.86 6.3 43.3 83 3.6 38.5 6.617 0.261
23:54 1013 29.91 842 24.86 6.2 43.1 84 3.6 38.6 6.543 0.258
23:55 1013 29.91 842 24.86 6.1 42.9 84 3.6 38.5 6.441 0.254
23:56 1013 29.91 842 24.86 6 42.9 85 3.7 38.6 6.39 0.252
23:57 1013 29.91 842 24.86 5.9 42.7 85 3.7 38.6 6.368 0.251
23:58 1013 29.91 842 24.86 5.9 42.6 86 3.7 38.6 6.294 0.248
23:59 1013 29.91 842 24.86 5.9 42.6 86 3.7 38.7 6.277 0.247
24:00 1013 29.91 842 24.86 5.9 42.6 86 3.7 38.6 6.3 0.248